<?xml version="1.0" encoding="UTF-8" standalone="no" ?>
<gpx xmlns="http://www.topografix.com/GPX/1/1" xmlns:xsi="http://www.w3.org/2001/XMLSchema-instance" xsi:schemaLocation="http://www.topografix.com/GPX/1/1 http://www.topografix.com/GPX/1/1/gpx.xsd" version="1.1" creator="VisuGPX - https://www.visugpx.com">
  <metadata>
    <name>Saillant4-noir-46km-1741m</name>
  </metadata>
  <trk>
    <name><![CDATA[Saillant4-noir-46km-1741m]]></name>
    <extensions>
      <line xmlns="http://www.topografix.com/GPX/gpx_style/0/2">
        <color>0000FF</color>
        <width>4</width>
      </line>
    </extensions>
    <trkseg>
      <trkpt lat="45.27213" lon="1.44178">
        <ele>126</ele>
        <time>2019-11-26T11:06:07Z</time>
      </trkpt>
      <trkpt lat="45.27247" lon="1.44177">
        <ele>127</ele>
        <time>2019-11-26T11:06:12Z</time>
      </trkpt>
      <trkpt lat="45.27253" lon="1.44267">
        <ele>124</ele>
        <time>2019-11-26T11:06:17Z</time>
      </trkpt>
      <trkpt lat="45.27259" lon="1.44335">
        <ele>122</ele>
        <time>2019-11-26T11:06:22Z</time>
      </trkpt>
      <trkpt lat="45.27265" lon="1.44385">
        <ele>123</ele>
        <time>2019-11-26T11:06:27Z</time>
      </trkpt>
      <trkpt lat="45.27275" lon="1.44445">
        <ele>124</ele>
        <time>2019-11-26T11:06:32Z</time>
      </trkpt>
      <trkpt lat="45.27307" lon="1.44428">
        <ele>125</ele>
        <time>2019-11-26T11:06:37Z</time>
      </trkpt>
      <trkpt lat="45.27333" lon="1.44408">
        <ele>126</ele>
        <time>2019-11-26T11:06:42Z</time>
      </trkpt>
      <trkpt lat="45.27355" lon="1.444">
        <ele>127</ele>
        <time>2019-11-26T11:06:47Z</time>
      </trkpt>
      <trkpt lat="45.27393" lon="1.44368">
        <ele>128</ele>
        <time>2019-11-26T11:06:52Z</time>
      </trkpt>
      <trkpt lat="45.27426" lon="1.44335">
        <ele>129</ele>
        <time>2019-11-26T11:06:57Z</time>
      </trkpt>
      <trkpt lat="45.27446" lon="1.44308">
        <ele>130</ele>
        <time>2019-11-26T11:07:02Z</time>
      </trkpt>
      <trkpt lat="45.27473" lon="1.4428">
        <ele>131</ele>
        <time>2019-11-26T11:07:07Z</time>
      </trkpt>
      <trkpt lat="45.27505" lon="1.44265">
        <ele>130</ele>
        <time>2019-11-26T11:07:12Z</time>
      </trkpt>
      <trkpt lat="45.27538" lon="1.44217">
        <ele>130</ele>
        <time>2019-11-26T11:07:17Z</time>
      </trkpt>
      <trkpt lat="45.27571" lon="1.44177">
        <ele>129</ele>
        <time>2019-11-26T11:07:22Z</time>
      </trkpt>
      <trkpt lat="45.27604" lon="1.44145">
        <ele>131</ele>
        <time>2019-11-26T11:07:27Z</time>
      </trkpt>
      <trkpt lat="45.27642" lon="1.44102">
        <ele>134</ele>
        <time>2019-11-26T11:07:32Z</time>
      </trkpt>
      <trkpt lat="45.27674" lon="1.44074">
        <ele>135</ele>
        <time>2019-11-26T11:07:37Z</time>
      </trkpt>
      <trkpt lat="45.27722" lon="1.44151">
        <ele>141</ele>
        <time>2019-11-26T11:07:42Z</time>
      </trkpt>
      <trkpt lat="45.27763" lon="1.44226">
        <ele>147</ele>
        <time>2019-11-26T11:07:47Z</time>
      </trkpt>
      <trkpt lat="45.2778" lon="1.44295">
        <ele>150</ele>
        <time>2019-11-26T11:07:52Z</time>
      </trkpt>
      <trkpt lat="45.27802" lon="1.44434">
        <ele>160</ele>
        <time>2019-11-26T11:07:57Z</time>
      </trkpt>
      <trkpt lat="45.27814" lon="1.44477">
        <ele>164</ele>
        <time>2019-11-26T11:08:02Z</time>
      </trkpt>
      <trkpt lat="45.2784" lon="1.44531">
        <ele>168</ele>
        <time>2019-11-26T11:08:07Z</time>
      </trkpt>
      <trkpt lat="45.27841" lon="1.44574">
        <ele>171</ele>
        <time>2019-11-26T11:08:12Z</time>
      </trkpt>
      <trkpt lat="45.27847" lon="1.44636">
        <ele>175</ele>
        <time>2019-11-26T11:08:17Z</time>
      </trkpt>
      <trkpt lat="45.27847" lon="1.44711">
        <ele>179</ele>
        <time>2019-11-26T11:08:22Z</time>
      </trkpt>
      <trkpt lat="45.27872" lon="1.44769">
        <ele>183</ele>
        <time>2019-11-26T11:08:27Z</time>
      </trkpt>
      <trkpt lat="45.27905" lon="1.44805">
        <ele>186</ele>
        <time>2019-11-26T11:08:32Z</time>
      </trkpt>
      <trkpt lat="45.27959" lon="1.44846">
        <ele>192</ele>
        <time>2019-11-26T11:08:37Z</time>
      </trkpt>
      <trkpt lat="45.28011" lon="1.44898">
        <ele>197</ele>
        <time>2019-11-26T11:08:42Z</time>
      </trkpt>
      <trkpt lat="45.28054" lon="1.44881">
        <ele>200</ele>
        <time>2019-11-26T11:08:47Z</time>
      </trkpt>
      <trkpt lat="45.281" lon="1.44876">
        <ele>203</ele>
        <time>2019-11-26T11:08:52Z</time>
      </trkpt>
      <trkpt lat="45.28193" lon="1.44872">
        <ele>207</ele>
        <time>2019-11-26T11:08:57Z</time>
      </trkpt>
      <trkpt lat="45.2827" lon="1.44885">
        <ele>208</ele>
        <time>2019-11-26T11:09:02Z</time>
      </trkpt>
      <trkpt lat="45.28393" lon="1.4493">
        <ele>219</ele>
        <time>2019-11-26T11:09:07Z</time>
      </trkpt>
      <trkpt lat="45.28435" lon="1.44936">
        <ele>225</ele>
        <time>2019-11-26T11:09:12Z</time>
      </trkpt>
      <trkpt lat="45.28451" lon="1.44936">
        <ele>228</ele>
        <time>2019-11-26T11:09:17Z</time>
      </trkpt>
      <trkpt lat="45.28476" lon="1.44966">
        <ele>232</ele>
        <time>2019-11-26T11:09:22Z</time>
      </trkpt>
      <trkpt lat="45.28482" lon="1.44915">
        <ele>232</ele>
        <time>2019-11-26T11:09:27Z</time>
      </trkpt>
      <trkpt lat="45.28506" lon="1.44861">
        <ele>236</ele>
        <time>2019-11-26T11:09:32Z</time>
      </trkpt>
      <trkpt lat="45.2853" lon="1.44816">
        <ele>237</ele>
        <time>2019-11-26T11:09:37Z</time>
      </trkpt>
      <trkpt lat="45.28542" lon="1.44795">
        <ele>237</ele>
        <time>2019-11-26T11:09:42Z</time>
      </trkpt>
      <trkpt lat="45.28569" lon="1.44762">
        <ele>237</ele>
        <time>2019-11-26T11:09:47Z</time>
      </trkpt>
      <trkpt lat="45.28614" lon="1.44784">
        <ele>242</ele>
        <time>2019-11-26T11:09:52Z</time>
      </trkpt>
      <trkpt lat="45.28658" lon="1.44814">
        <ele>248</ele>
        <time>2019-11-26T11:09:57Z</time>
      </trkpt>
      <trkpt lat="45.28693" lon="1.44855">
        <ele>254</ele>
        <time>2019-11-26T11:10:02Z</time>
      </trkpt>
      <trkpt lat="45.28723" lon="1.44904">
        <ele>262</ele>
        <time>2019-11-26T11:10:07Z</time>
      </trkpt>
      <trkpt lat="45.28723" lon="1.44934">
        <ele>265</ele>
        <time>2019-11-26T11:10:12Z</time>
      </trkpt>
      <trkpt lat="45.28741" lon="1.44973">
        <ele>273</ele>
        <time>2019-11-26T11:10:17Z</time>
      </trkpt>
      <trkpt lat="45.28752" lon="1.45003">
        <ele>278</ele>
        <time>2019-11-26T11:10:22Z</time>
      </trkpt>
      <trkpt lat="45.28778" lon="1.45018">
        <ele>283</ele>
        <time>2019-11-26T11:10:27Z</time>
      </trkpt>
      <trkpt lat="45.2882" lon="1.45011">
        <ele>286</ele>
        <time>2019-11-26T11:10:32Z</time>
      </trkpt>
      <trkpt lat="45.28858" lon="1.44981">
        <ele>284</ele>
        <time>2019-11-26T11:10:37Z</time>
      </trkpt>
      <trkpt lat="45.28876" lon="1.44958">
        <ele>281</ele>
        <time>2019-11-26T11:10:42Z</time>
      </trkpt>
      <trkpt lat="45.28904" lon="1.44958">
        <ele>283</ele>
        <time>2019-11-26T11:10:47Z</time>
      </trkpt>
      <trkpt lat="45.28966" lon="1.44992">
        <ele>288</ele>
        <time>2019-11-26T11:10:52Z</time>
      </trkpt>
      <trkpt lat="45.29005" lon="1.45026">
        <ele>292</ele>
        <time>2019-11-26T11:10:57Z</time>
      </trkpt>
      <trkpt lat="45.29018" lon="1.45074">
        <ele>300</ele>
        <time>2019-11-26T11:11:02Z</time>
      </trkpt>
      <trkpt lat="45.2903" lon="1.45102">
        <ele>305</ele>
        <time>2019-11-26T11:11:07Z</time>
      </trkpt>
      <trkpt lat="45.29067" lon="1.45097">
        <ele>301</ele>
        <time>2019-11-26T11:11:12Z</time>
      </trkpt>
      <trkpt lat="45.29101" lon="1.4508">
        <ele>295</ele>
        <time>2019-11-26T11:11:17Z</time>
      </trkpt>
      <trkpt lat="45.2911" lon="1.45071">
        <ele>293</ele>
        <time>2019-11-26T11:11:22Z</time>
      </trkpt>
      <trkpt lat="45.29126" lon="1.45087">
        <ele>296</ele>
        <time>2019-11-26T11:11:27Z</time>
      </trkpt>
      <trkpt lat="45.29138" lon="1.45112">
        <ele>302</ele>
        <time>2019-11-26T11:11:32Z</time>
      </trkpt>
      <trkpt lat="45.29147" lon="1.45127">
        <ele>306</ele>
        <time>2019-11-26T11:11:37Z</time>
      </trkpt>
      <trkpt lat="45.29167" lon="1.45136">
        <ele>308</ele>
        <time>2019-11-26T11:11:42Z</time>
      </trkpt>
      <trkpt lat="45.29181" lon="1.45129">
        <ele>308</ele>
        <time>2019-11-26T11:11:47Z</time>
      </trkpt>
      <trkpt lat="45.29194" lon="1.45117">
        <ele>306</ele>
        <time>2019-11-26T11:11:52Z</time>
      </trkpt>
      <trkpt lat="45.29211" lon="1.45097">
        <ele>304</ele>
        <time>2019-11-26T11:11:57Z</time>
      </trkpt>
      <trkpt lat="45.29224" lon="1.45082">
        <ele>302</ele>
        <time>2019-11-26T11:12:02Z</time>
      </trkpt>
      <trkpt lat="45.2925" lon="1.4508">
        <ele>305</ele>
        <time>2019-11-26T11:12:07Z</time>
      </trkpt>
      <trkpt lat="45.29273" lon="1.45078">
        <ele>308</ele>
        <time>2019-11-26T11:12:12Z</time>
      </trkpt>
      <trkpt lat="45.29318" lon="1.45099">
        <ele>318</ele>
        <time>2019-11-26T11:12:17Z</time>
      </trkpt>
      <trkpt lat="45.29383" lon="1.4514">
        <ele>323</ele>
        <time>2019-11-26T11:12:22Z</time>
      </trkpt>
      <trkpt lat="45.29413" lon="1.45151">
        <ele>321</ele>
        <time>2019-11-26T11:12:27Z</time>
      </trkpt>
      <trkpt lat="45.29424" lon="1.45162">
        <ele>322</ele>
        <time>2019-11-26T11:12:32Z</time>
      </trkpt>
      <trkpt lat="45.2943" lon="1.45239">
        <ele>333</ele>
        <time>2019-11-26T11:12:37Z</time>
      </trkpt>
      <trkpt lat="45.29443" lon="1.45271">
        <ele>336</ele>
        <time>2019-11-26T11:12:42Z</time>
      </trkpt>
      <trkpt lat="45.29446" lon="1.45292">
        <ele>339</ele>
        <time>2019-11-26T11:12:47Z</time>
      </trkpt>
      <trkpt lat="45.29458" lon="1.4531">
        <ele>340</ele>
        <time>2019-11-26T11:12:52Z</time>
      </trkpt>
      <trkpt lat="45.29473" lon="1.45314">
        <ele>339</ele>
        <time>2019-11-26T11:12:57Z</time>
      </trkpt>
      <trkpt lat="45.29532" lon="1.45265">
        <ele>336</ele>
        <time>2019-11-26T11:13:02Z</time>
      </trkpt>
      <trkpt lat="45.29561" lon="1.45237">
        <ele>340</ele>
        <time>2019-11-26T11:13:07Z</time>
      </trkpt>
      <trkpt lat="45.29578" lon="1.45213">
        <ele>342</ele>
        <time>2019-11-26T11:13:12Z</time>
      </trkpt>
      <trkpt lat="45.29578" lon="1.45187">
        <ele>339</ele>
        <time>2019-11-26T11:13:17Z</time>
      </trkpt>
      <trkpt lat="45.29593" lon="1.45159">
        <ele>338</ele>
        <time>2019-11-26T11:13:22Z</time>
      </trkpt>
      <trkpt lat="45.29596" lon="1.45136">
        <ele>336</ele>
        <time>2019-11-26T11:13:27Z</time>
      </trkpt>
      <trkpt lat="45.29581" lon="1.45117">
        <ele>331</ele>
        <time>2019-11-26T11:13:32Z</time>
      </trkpt>
      <trkpt lat="45.29584" lon="1.45082">
        <ele>328</ele>
        <time>2019-11-26T11:13:37Z</time>
      </trkpt>
      <trkpt lat="45.2959" lon="1.45067">
        <ele>326</ele>
        <time>2019-11-26T11:13:42Z</time>
      </trkpt>
      <trkpt lat="45.29614" lon="1.45044">
        <ele>327</ele>
        <time>2019-11-26T11:13:47Z</time>
      </trkpt>
      <trkpt lat="45.29649" lon="1.45039">
        <ele>332</ele>
        <time>2019-11-26T11:13:52Z</time>
      </trkpt>
      <trkpt lat="45.29659" lon="1.45033">
        <ele>334</ele>
        <time>2019-11-26T11:13:57Z</time>
      </trkpt>
      <trkpt lat="45.29642" lon="1.45003">
        <ele>330</ele>
        <time>2019-11-26T11:14:02Z</time>
      </trkpt>
      <trkpt lat="45.2962" lon="1.44945">
        <ele>333</ele>
        <time>2019-11-26T11:14:07Z</time>
      </trkpt>
      <trkpt lat="45.29612" lon="1.44913">
        <ele>336</ele>
        <time>2019-11-26T11:14:12Z</time>
      </trkpt>
      <trkpt lat="45.29575" lon="1.44868">
        <ele>338</ele>
        <time>2019-11-26T11:14:17Z</time>
      </trkpt>
      <trkpt lat="45.29547" lon="1.44848">
        <ele>340</ele>
        <time>2019-11-26T11:14:22Z</time>
      </trkpt>
      <trkpt lat="45.29511" lon="1.44835">
        <ele>339</ele>
        <time>2019-11-26T11:14:27Z</time>
      </trkpt>
      <trkpt lat="45.29481" lon="1.44818">
        <ele>338</ele>
        <time>2019-11-26T11:14:32Z</time>
      </trkpt>
      <trkpt lat="45.29452" lon="1.44801">
        <ele>335</ele>
        <time>2019-11-26T11:14:37Z</time>
      </trkpt>
      <trkpt lat="45.29434" lon="1.44788">
        <ele>334</ele>
        <time>2019-11-26T11:14:42Z</time>
      </trkpt>
      <trkpt lat="45.29431" lon="1.44782">
        <ele>334</ele>
        <time>2019-11-26T11:14:47Z</time>
      </trkpt>
      <trkpt lat="45.29442" lon="1.44765">
        <ele>336</ele>
        <time>2019-11-26T11:14:52Z</time>
      </trkpt>
      <trkpt lat="45.29457" lon="1.44743">
        <ele>339</ele>
        <time>2019-11-26T11:14:57Z</time>
      </trkpt>
      <trkpt lat="45.29469" lon="1.44739">
        <ele>340</ele>
        <time>2019-11-26T11:15:02Z</time>
      </trkpt>
      <trkpt lat="45.29507" lon="1.44756">
        <ele>345</ele>
        <time>2019-11-26T11:15:07Z</time>
      </trkpt>
      <trkpt lat="45.29565" lon="1.44743">
        <ele>350</ele>
        <time>2019-11-26T11:15:12Z</time>
      </trkpt>
      <trkpt lat="45.29624" lon="1.44735">
        <ele>354</ele>
        <time>2019-11-26T11:15:17Z</time>
      </trkpt>
      <trkpt lat="45.29671" lon="1.44726">
        <ele>357</ele>
        <time>2019-11-26T11:15:22Z</time>
      </trkpt>
      <trkpt lat="45.29688" lon="1.44644">
        <ele>356</ele>
        <time>2019-11-26T11:15:27Z</time>
      </trkpt>
      <trkpt lat="45.29638" lon="1.44602">
        <ele>350</ele>
        <time>2019-11-26T11:15:32Z</time>
      </trkpt>
      <trkpt lat="45.29602" lon="1.4455">
        <ele>344</ele>
        <time>2019-11-26T11:15:37Z</time>
      </trkpt>
      <trkpt lat="45.29569" lon="1.44516">
        <ele>339</ele>
        <time>2019-11-26T11:15:42Z</time>
      </trkpt>
      <trkpt lat="45.2952" lon="1.44477">
        <ele>331</ele>
        <time>2019-11-26T11:15:47Z</time>
      </trkpt>
      <trkpt lat="45.29479" lon="1.44449">
        <ele>326</ele>
        <time>2019-11-26T11:15:52Z</time>
      </trkpt>
      <trkpt lat="45.29455" lon="1.44434">
        <ele>323</ele>
        <time>2019-11-26T11:15:57Z</time>
      </trkpt>
      <trkpt lat="45.29434" lon="1.44411">
        <ele>321</ele>
        <time>2019-11-26T11:16:02Z</time>
      </trkpt>
      <trkpt lat="45.29407" lon="1.44411">
        <ele>317</ele>
        <time>2019-11-26T11:16:07Z</time>
      </trkpt>
      <trkpt lat="45.29396" lon="1.44378">
        <ele>314</ele>
        <time>2019-11-26T11:16:12Z</time>
      </trkpt>
      <trkpt lat="45.2939" lon="1.44301">
        <ele>308</ele>
        <time>2019-11-26T11:16:17Z</time>
      </trkpt>
      <trkpt lat="45.29366" lon="1.44295">
        <ele>303</ele>
        <time>2019-11-26T11:16:22Z</time>
      </trkpt>
      <trkpt lat="45.29333" lon="1.44318">
        <ele>300</ele>
        <time>2019-11-26T11:16:27Z</time>
      </trkpt>
      <trkpt lat="45.2931" lon="1.44346">
        <ele>297</ele>
        <time>2019-11-26T11:16:32Z</time>
      </trkpt>
      <trkpt lat="45.29289" lon="1.44374">
        <ele>293</ele>
        <time>2019-11-26T11:16:37Z</time>
      </trkpt>
      <trkpt lat="45.29277" lon="1.44329">
        <ele>289</ele>
        <time>2019-11-26T11:16:42Z</time>
      </trkpt>
      <trkpt lat="45.29261" lon="1.44308">
        <ele>284</ele>
        <time>2019-11-26T11:16:47Z</time>
      </trkpt>
      <trkpt lat="45.29258" lon="1.44284">
        <ele>282</ele>
        <time>2019-11-26T11:16:52Z</time>
      </trkpt>
      <trkpt lat="45.29264" lon="1.4426">
        <ele>282</ele>
        <time>2019-11-26T11:16:57Z</time>
      </trkpt>
      <trkpt lat="45.29255" lon="1.44248">
        <ele>279</ele>
        <time>2019-11-26T11:17:02Z</time>
      </trkpt>
      <trkpt lat="45.29242" lon="1.44269">
        <ele>278</ele>
        <time>2019-11-26T11:17:07Z</time>
      </trkpt>
      <trkpt lat="45.29212" lon="1.44245">
        <ele>270</ele>
        <time>2019-11-26T11:17:12Z</time>
      </trkpt>
      <trkpt lat="45.29194" lon="1.44217">
        <ele>263</ele>
        <time>2019-11-26T11:17:17Z</time>
      </trkpt>
      <trkpt lat="45.29185" lon="1.4417">
        <ele>257</ele>
        <time>2019-11-26T11:17:22Z</time>
      </trkpt>
      <trkpt lat="45.29191" lon="1.44108">
        <ele>252</ele>
        <time>2019-11-26T11:17:27Z</time>
      </trkpt>
      <trkpt lat="45.29208" lon="1.4408">
        <ele>251</ele>
        <time>2019-11-26T11:17:32Z</time>
      </trkpt>
      <trkpt lat="45.29236" lon="1.44054">
        <ele>249</ele>
        <time>2019-11-26T11:17:37Z</time>
      </trkpt>
      <trkpt lat="45.29261" lon="1.44035">
        <ele>247</ele>
        <time>2019-11-26T11:17:42Z</time>
      </trkpt>
      <trkpt lat="45.2928" lon="1.44011">
        <ele>244</ele>
        <time>2019-11-26T11:17:47Z</time>
      </trkpt>
      <trkpt lat="45.29298" lon="1.43996">
        <ele>244</ele>
        <time>2019-11-26T11:17:52Z</time>
      </trkpt>
      <trkpt lat="45.29309" lon="1.43981">
        <ele>245</ele>
        <time>2019-11-26T11:17:57Z</time>
      </trkpt>
      <trkpt lat="45.29301" lon="1.43956">
        <ele>244</ele>
        <time>2019-11-26T11:18:02Z</time>
      </trkpt>
      <trkpt lat="45.2928" lon="1.43932">
        <ele>242</ele>
        <time>2019-11-26T11:18:07Z</time>
      </trkpt>
      <trkpt lat="45.29221" lon="1.43908">
        <ele>242</ele>
        <time>2019-11-26T11:18:12Z</time>
      </trkpt>
      <trkpt lat="45.29182" lon="1.43902">
        <ele>242</ele>
        <time>2019-11-26T11:18:17Z</time>
      </trkpt>
      <trkpt lat="45.29153" lon="1.43902">
        <ele>240</ele>
        <time>2019-11-26T11:18:22Z</time>
      </trkpt>
      <trkpt lat="45.29117" lon="1.439">
        <ele>237</ele>
        <time>2019-11-26T11:18:27Z</time>
      </trkpt>
      <trkpt lat="45.29116" lon="1.43876">
        <ele>237</ele>
        <time>2019-11-26T11:18:32Z</time>
      </trkpt>
      <trkpt lat="45.29152" lon="1.43878">
        <ele>241</ele>
        <time>2019-11-26T11:18:37Z</time>
      </trkpt>
      <trkpt lat="45.29179" lon="1.43878">
        <ele>243</ele>
        <time>2019-11-26T11:18:42Z</time>
      </trkpt>
      <trkpt lat="45.29217" lon="1.43859">
        <ele>248</ele>
        <time>2019-11-26T11:18:47Z</time>
      </trkpt>
      <trkpt lat="45.29276" lon="1.43818">
        <ele>257</ele>
        <time>2019-11-26T11:18:52Z</time>
      </trkpt>
      <trkpt lat="45.29297" lon="1.4384">
        <ele>258</ele>
        <time>2019-11-26T11:18:57Z</time>
      </trkpt>
      <trkpt lat="45.29329" lon="1.43799">
        <ele>263</ele>
        <time>2019-11-26T11:19:02Z</time>
      </trkpt>
      <trkpt lat="45.29342" lon="1.43782">
        <ele>265</ele>
        <time>2019-11-26T11:19:07Z</time>
      </trkpt>
      <trkpt lat="45.29368" lon="1.43769">
        <ele>270</ele>
        <time>2019-11-26T11:19:12Z</time>
      </trkpt>
      <trkpt lat="45.29387" lon="1.43769">
        <ele>273</ele>
        <time>2019-11-26T11:19:17Z</time>
      </trkpt>
      <trkpt lat="45.29418" lon="1.4372">
        <ele>276</ele>
        <time>2019-11-26T11:19:22Z</time>
      </trkpt>
      <trkpt lat="45.29485" lon="1.43653">
        <ele>281</ele>
        <time>2019-11-26T11:19:27Z</time>
      </trkpt>
      <trkpt lat="45.29508" lon="1.43638">
        <ele>282</ele>
        <time>2019-11-26T11:19:32Z</time>
      </trkpt>
      <trkpt lat="45.29541" lon="1.43632">
        <ele>287</ele>
        <time>2019-11-26T11:19:37Z</time>
      </trkpt>
      <trkpt lat="45.29608" lon="1.43589">
        <ele>290</ele>
        <time>2019-11-26T11:19:42Z</time>
      </trkpt>
      <trkpt lat="45.2965" lon="1.43567">
        <ele>290</ele>
        <time>2019-11-26T11:19:47Z</time>
      </trkpt>
      <trkpt lat="45.29667" lon="1.43561">
        <ele>290</ele>
        <time>2019-11-26T11:19:52Z</time>
      </trkpt>
      <trkpt lat="45.29698" lon="1.43529">
        <ele>288</ele>
        <time>2019-11-26T11:19:57Z</time>
      </trkpt>
      <trkpt lat="45.29727" lon="1.43473">
        <ele>286</ele>
        <time>2019-11-26T11:20:02Z</time>
      </trkpt>
      <trkpt lat="45.2975" lon="1.43443">
        <ele>288</ele>
        <time>2019-11-26T11:20:07Z</time>
      </trkpt>
      <trkpt lat="45.29771" lon="1.4343">
        <ele>287</ele>
        <time>2019-11-26T11:20:12Z</time>
      </trkpt>
      <trkpt lat="45.29796" lon="1.43419">
        <ele>283</ele>
        <time>2019-11-26T11:20:17Z</time>
      </trkpt>
      <trkpt lat="45.29812" lon="1.43419">
        <ele>282</ele>
        <time>2019-11-26T11:20:22Z</time>
      </trkpt>
      <trkpt lat="45.29843" lon="1.43432">
        <ele>282</ele>
        <time>2019-11-26T11:20:27Z</time>
      </trkpt>
      <trkpt lat="45.29879" lon="1.43462">
        <ele>286</ele>
        <time>2019-11-26T11:20:32Z</time>
      </trkpt>
      <trkpt lat="45.29922" lon="1.4346">
        <ele>283</ele>
        <time>2019-11-26T11:20:37Z</time>
      </trkpt>
      <trkpt lat="45.29935" lon="1.43424">
        <ele>278</ele>
        <time>2019-11-26T11:20:42Z</time>
      </trkpt>
      <trkpt lat="45.29944" lon="1.43398">
        <ele>276</ele>
        <time>2019-11-26T11:20:47Z</time>
      </trkpt>
      <trkpt lat="45.29967" lon="1.4337">
        <ele>277</ele>
        <time>2019-11-26T11:20:52Z</time>
      </trkpt>
      <trkpt lat="45.30009" lon="1.43327">
        <ele>276</ele>
        <time>2019-11-26T11:20:57Z</time>
      </trkpt>
      <trkpt lat="45.30058" lon="1.43308">
        <ele>278</ele>
        <time>2019-11-26T11:21:02Z</time>
      </trkpt>
      <trkpt lat="45.30098" lon="1.43293">
        <ele>278</ele>
        <time>2019-11-26T11:21:07Z</time>
      </trkpt>
      <trkpt lat="45.30139" lon="1.4329">
        <ele>280</ele>
        <time>2019-11-26T11:21:12Z</time>
      </trkpt>
      <trkpt lat="45.30228" lon="1.43323">
        <ele>291</ele>
        <time>2019-11-26T11:21:17Z</time>
      </trkpt>
      <trkpt lat="45.30273" lon="1.43344">
        <ele>295</ele>
        <time>2019-11-26T11:21:22Z</time>
      </trkpt>
      <trkpt lat="45.30307" lon="1.43353">
        <ele>296</ele>
        <time>2019-11-26T11:21:27Z</time>
      </trkpt>
      <trkpt lat="45.30335" lon="1.43355">
        <ele>296</ele>
        <time>2019-11-26T11:21:32Z</time>
      </trkpt>
      <trkpt lat="45.30353" lon="1.43344">
        <ele>297</ele>
        <time>2019-11-26T11:21:37Z</time>
      </trkpt>
      <trkpt lat="45.30352" lon="1.43321">
        <ele>297</ele>
        <time>2019-11-26T11:21:42Z</time>
      </trkpt>
      <trkpt lat="45.30335" lon="1.43293">
        <ele>296</ele>
        <time>2019-11-26T11:21:47Z</time>
      </trkpt>
      <trkpt lat="45.30299" lon="1.43263">
        <ele>293</ele>
        <time>2019-11-26T11:21:52Z</time>
      </trkpt>
      <trkpt lat="45.30266" lon="1.43239">
        <ele>288</ele>
        <time>2019-11-26T11:21:57Z</time>
      </trkpt>
      <trkpt lat="45.30248" lon="1.4322">
        <ele>287</ele>
        <time>2019-11-26T11:22:02Z</time>
      </trkpt>
      <trkpt lat="45.30227" lon="1.43187">
        <ele>286</ele>
        <time>2019-11-26T11:22:07Z</time>
      </trkpt>
      <trkpt lat="45.30207" lon="1.43155">
        <ele>284</ele>
        <time>2019-11-26T11:22:12Z</time>
      </trkpt>
      <trkpt lat="45.30172" lon="1.43112">
        <ele>283</ele>
        <time>2019-11-26T11:22:17Z</time>
      </trkpt>
      <trkpt lat="45.30156" lon="1.43085">
        <ele>284</ele>
        <time>2019-11-26T11:22:22Z</time>
      </trkpt>
      <trkpt lat="45.30127" lon="1.43076">
        <ele>277</ele>
        <time>2019-11-26T11:22:27Z</time>
      </trkpt>
      <trkpt lat="45.30076" lon="1.4305">
        <ele>273</ele>
        <time>2019-11-26T11:22:32Z</time>
      </trkpt>
      <trkpt lat="45.30042" lon="1.43037">
        <ele>273</ele>
        <time>2019-11-26T11:22:37Z</time>
      </trkpt>
      <trkpt lat="45.30018" lon="1.43037">
        <ele>270</ele>
        <time>2019-11-26T11:22:42Z</time>
      </trkpt>
      <trkpt lat="45.29981" lon="1.43027">
        <ele>267</ele>
        <time>2019-11-26T11:22:47Z</time>
      </trkpt>
      <trkpt lat="45.29953" lon="1.43009">
        <ele>266</ele>
        <time>2019-11-26T11:22:52Z</time>
      </trkpt>
      <trkpt lat="45.29941" lon="1.42992">
        <ele>267</ele>
        <time>2019-11-26T11:22:57Z</time>
      </trkpt>
      <trkpt lat="45.29949" lon="1.42984">
        <ele>270</ele>
        <time>2019-11-26T11:23:02Z</time>
      </trkpt>
      <trkpt lat="45.29975" lon="1.42984">
        <ele>276</ele>
        <time>2019-11-26T11:23:07Z</time>
      </trkpt>
      <trkpt lat="45.29976" lon="1.42964">
        <ele>279</ele>
        <time>2019-11-26T11:23:12Z</time>
      </trkpt>
      <trkpt lat="45.29979" lon="1.42936">
        <ele>284</ele>
        <time>2019-11-26T11:23:17Z</time>
      </trkpt>
      <trkpt lat="45.29994" lon="1.42921">
        <ele>291</ele>
        <time>2019-11-26T11:23:22Z</time>
      </trkpt>
      <trkpt lat="45.30005" lon="1.42915">
        <ele>294</ele>
        <time>2019-11-26T11:23:27Z</time>
      </trkpt>
      <trkpt lat="45.30024" lon="1.42909">
        <ele>297</ele>
        <time>2019-11-26T11:23:32Z</time>
      </trkpt>
      <trkpt lat="45.30041" lon="1.42902">
        <ele>299</ele>
        <time>2019-11-26T11:23:37Z</time>
      </trkpt>
      <trkpt lat="45.30073" lon="1.42917">
        <ele>305</ele>
        <time>2019-11-26T11:23:42Z</time>
      </trkpt>
      <trkpt lat="45.30125" lon="1.42917">
        <ele>312</ele>
        <time>2019-11-26T11:23:47Z</time>
      </trkpt>
      <trkpt lat="45.30148" lon="1.42844">
        <ele>308</ele>
        <time>2019-11-26T11:23:52Z</time>
      </trkpt>
      <trkpt lat="45.30215" lon="1.42859">
        <ele>312</ele>
        <time>2019-11-26T11:23:57Z</time>
      </trkpt>
      <trkpt lat="45.30258" lon="1.4287">
        <ele>316</ele>
        <time>2019-11-26T11:24:02Z</time>
      </trkpt>
      <trkpt lat="45.30314" lon="1.42857">
        <ele>320</ele>
        <time>2019-11-26T11:24:07Z</time>
      </trkpt>
      <trkpt lat="45.30356" lon="1.42833">
        <ele>322</ele>
        <time>2019-11-26T11:24:12Z</time>
      </trkpt>
      <trkpt lat="45.30411" lon="1.42806">
        <ele>329</ele>
        <time>2019-11-26T11:24:17Z</time>
      </trkpt>
      <trkpt lat="45.3042" lon="1.42786">
        <ele>329</ele>
        <time>2019-11-26T11:24:22Z</time>
      </trkpt>
      <trkpt lat="45.30438" lon="1.42737">
        <ele>327</ele>
        <time>2019-11-26T11:24:27Z</time>
      </trkpt>
      <trkpt lat="45.30488" lon="1.42728">
        <ele>334</ele>
        <time>2019-11-26T11:24:32Z</time>
      </trkpt>
      <trkpt lat="45.30522" lon="1.42692">
        <ele>335</ele>
        <time>2019-11-26T11:24:37Z</time>
      </trkpt>
      <trkpt lat="45.30537" lon="1.42657">
        <ele>335</ele>
        <time>2019-11-26T11:24:42Z</time>
      </trkpt>
      <trkpt lat="45.30536" lon="1.4258">
        <ele>325</ele>
        <time>2019-11-26T11:24:47Z</time>
      </trkpt>
      <trkpt lat="45.30533" lon="1.42509">
        <ele>314</ele>
        <time>2019-11-26T11:24:52Z</time>
      </trkpt>
      <trkpt lat="45.30537" lon="1.42464">
        <ele>309</ele>
        <time>2019-11-26T11:24:57Z</time>
      </trkpt>
      <trkpt lat="45.30544" lon="1.42449">
        <ele>308</ele>
        <time>2019-11-26T11:25:02Z</time>
      </trkpt>
      <trkpt lat="45.30553" lon="1.42421">
        <ele>305</ele>
        <time>2019-11-26T11:25:07Z</time>
      </trkpt>
      <trkpt lat="45.30577" lon="1.42409">
        <ele>309</ele>
        <time>2019-11-26T11:25:12Z</time>
      </trkpt>
      <trkpt lat="45.30595" lon="1.42398">
        <ele>312</ele>
        <time>2019-11-26T11:25:17Z</time>
      </trkpt>
      <trkpt lat="45.30593" lon="1.42387">
        <ele>312</ele>
        <time>2019-11-26T11:25:22Z</time>
      </trkpt>
      <trkpt lat="45.30583" lon="1.42342">
        <ele>308</ele>
        <time>2019-11-26T11:25:27Z</time>
      </trkpt>
      <trkpt lat="45.3055" lon="1.42295">
        <ele>296</ele>
        <time>2019-11-26T11:25:32Z</time>
      </trkpt>
      <trkpt lat="45.30528" lon="1.42252">
        <ele>287</ele>
        <time>2019-11-26T11:25:37Z</time>
      </trkpt>
      <trkpt lat="45.30515" lon="1.42218">
        <ele>281</ele>
        <time>2019-11-26T11:25:42Z</time>
      </trkpt>
      <trkpt lat="45.30524" lon="1.42181">
        <ele>281</ele>
        <time>2019-11-26T11:25:47Z</time>
      </trkpt>
      <trkpt lat="45.30547" lon="1.42155">
        <ele>283</ele>
        <time>2019-11-26T11:25:52Z</time>
      </trkpt>
      <trkpt lat="45.30566" lon="1.42134">
        <ele>281</ele>
        <time>2019-11-26T11:25:57Z</time>
      </trkpt>
      <trkpt lat="45.30577" lon="1.42117">
        <ele>279</ele>
        <time>2019-11-26T11:26:02Z</time>
      </trkpt>
      <trkpt lat="45.30596" lon="1.42085">
        <ele>274</ele>
        <time>2019-11-26T11:26:07Z</time>
      </trkpt>
      <trkpt lat="45.30566" lon="1.42082">
        <ele>269</ele>
        <time>2019-11-26T11:26:12Z</time>
      </trkpt>
      <trkpt lat="45.30513" lon="1.42102">
        <ele>266</ele>
        <time>2019-11-26T11:26:17Z</time>
      </trkpt>
      <trkpt lat="45.30482" lon="1.42115">
        <ele>261</ele>
        <time>2019-11-26T11:26:22Z</time>
      </trkpt>
      <trkpt lat="45.30459" lon="1.42132">
        <ele>257</ele>
        <time>2019-11-26T11:26:27Z</time>
      </trkpt>
      <trkpt lat="45.30453" lon="1.42127">
        <ele>255</ele>
        <time>2019-11-26T11:26:32Z</time>
      </trkpt>
      <trkpt lat="45.30451" lon="1.42117">
        <ele>254</ele>
        <time>2019-11-26T11:26:37Z</time>
      </trkpt>
      <trkpt lat="45.30467" lon="1.42065">
        <ele>250</ele>
        <time>2019-11-26T11:26:42Z</time>
      </trkpt>
      <trkpt lat="45.30491" lon="1.4205">
        <ele>251</ele>
        <time>2019-11-26T11:26:47Z</time>
      </trkpt>
      <trkpt lat="45.3051" lon="1.42027">
        <ele>248</ele>
        <time>2019-11-26T11:26:52Z</time>
      </trkpt>
      <trkpt lat="45.30515" lon="1.4202">
        <ele>247</ele>
        <time>2019-11-26T11:26:57Z</time>
      </trkpt>
      <trkpt lat="45.30513" lon="1.42005">
        <ele>243</ele>
        <time>2019-11-26T11:27:02Z</time>
      </trkpt>
      <trkpt lat="45.30489" lon="1.42009">
        <ele>240</ele>
        <time>2019-11-26T11:27:07Z</time>
      </trkpt>
      <trkpt lat="45.3047" lon="1.42001">
        <ele>236</ele>
        <time>2019-11-26T11:27:12Z</time>
      </trkpt>
      <trkpt lat="45.30461" lon="1.41994">
        <ele>233</ele>
        <time>2019-11-26T11:27:17Z</time>
      </trkpt>
      <trkpt lat="45.30356" lon="1.42014">
        <ele>215</ele>
        <time>2019-11-26T11:27:22Z</time>
      </trkpt>
      <trkpt lat="45.30349" lon="1.42014">
        <ele>213</ele>
        <time>2019-11-26T11:27:27Z</time>
      </trkpt>
      <trkpt lat="45.30355" lon="1.41999">
        <ele>213</ele>
        <time>2019-11-26T11:27:32Z</time>
      </trkpt>
      <trkpt lat="45.3039" lon="1.41937">
        <ele>208</ele>
        <time>2019-11-26T11:27:37Z</time>
      </trkpt>
      <trkpt lat="45.3042" lon="1.41915">
        <ele>209</ele>
        <time>2019-11-26T11:27:42Z</time>
      </trkpt>
      <trkpt lat="45.30445" lon="1.41894">
        <ele>206</ele>
        <time>2019-11-26T11:27:47Z</time>
      </trkpt>
      <trkpt lat="45.30465" lon="1.41881">
        <ele>206</ele>
        <time>2019-11-26T11:27:52Z</time>
      </trkpt>
      <trkpt lat="45.30479" lon="1.41881">
        <ele>207</ele>
        <time>2019-11-26T11:27:57Z</time>
      </trkpt>
      <trkpt lat="45.30492" lon="1.41874">
        <ele>208</ele>
        <time>2019-11-26T11:28:02Z</time>
      </trkpt>
      <trkpt lat="45.30498" lon="1.41853">
        <ele>203</ele>
        <time>2019-11-26T11:28:07Z</time>
      </trkpt>
      <trkpt lat="45.30457" lon="1.41831">
        <ele>191</ele>
        <time>2019-11-26T11:28:12Z</time>
      </trkpt>
      <trkpt lat="45.30417" lon="1.41818">
        <ele>181</ele>
        <time>2019-11-26T11:28:17Z</time>
      </trkpt>
      <trkpt lat="45.3039" lon="1.41823">
        <ele>177</ele>
        <time>2019-11-26T11:28:22Z</time>
      </trkpt>
      <trkpt lat="45.30329" lon="1.41853">
        <ele>172</ele>
        <time>2019-11-26T11:28:27Z</time>
      </trkpt>
      <trkpt lat="45.30338" lon="1.41816">
        <ele>165</ele>
        <time>2019-11-26T11:28:32Z</time>
      </trkpt>
      <trkpt lat="45.30334" lon="1.41786">
        <ele>160</ele>
        <time>2019-11-26T11:28:37Z</time>
      </trkpt>
      <trkpt lat="45.30329" lon="1.41752">
        <ele>155</ele>
        <time>2019-11-26T11:28:42Z</time>
      </trkpt>
      <trkpt lat="45.30316" lon="1.41728">
        <ele>154</ele>
        <time>2019-11-26T11:28:47Z</time>
      </trkpt>
      <trkpt lat="45.30361" lon="1.41659">
        <ele>151</ele>
        <time>2019-11-26T11:28:52Z</time>
      </trkpt>
      <trkpt lat="45.30405" lon="1.41614">
        <ele>151</ele>
        <time>2019-11-26T11:28:57Z</time>
      </trkpt>
      <trkpt lat="45.30448" lon="1.41588">
        <ele>151</ele>
        <time>2019-11-26T11:29:02Z</time>
      </trkpt>
      <trkpt lat="45.30486" lon="1.41569">
        <ele>151</ele>
        <time>2019-11-26T11:29:07Z</time>
      </trkpt>
      <trkpt lat="45.30537" lon="1.41579">
        <ele>154</ele>
        <time>2019-11-26T11:29:12Z</time>
      </trkpt>
      <trkpt lat="45.30569" lon="1.41571">
        <ele>155</ele>
        <time>2019-11-26T11:29:17Z</time>
      </trkpt>
      <trkpt lat="45.30592" lon="1.41536">
        <ele>154</ele>
        <time>2019-11-26T11:29:22Z</time>
      </trkpt>
      <trkpt lat="45.30622" lon="1.415">
        <ele>152</ele>
        <time>2019-11-26T11:29:27Z</time>
      </trkpt>
      <trkpt lat="45.30675" lon="1.41431">
        <ele>155</ele>
        <time>2019-11-26T11:29:32Z</time>
      </trkpt>
      <trkpt lat="45.30703" lon="1.41461">
        <ele>157</ele>
        <time>2019-11-26T11:29:37Z</time>
      </trkpt>
      <trkpt lat="45.30722" lon="1.41489">
        <ele>157</ele>
        <time>2019-11-26T11:29:42Z</time>
      </trkpt>
      <trkpt lat="45.30713" lon="1.4153">
        <ele>156</ele>
        <time>2019-11-26T11:29:47Z</time>
      </trkpt>
      <trkpt lat="45.30705" lon="1.4156">
        <ele>155</ele>
        <time>2019-11-26T11:29:52Z</time>
      </trkpt>
      <trkpt lat="45.30723" lon="1.41601">
        <ele>157</ele>
        <time>2019-11-26T11:29:57Z</time>
      </trkpt>
      <trkpt lat="45.30765" lon="1.41622">
        <ele>159</ele>
        <time>2019-11-26T11:30:02Z</time>
      </trkpt>
      <trkpt lat="45.3079" lon="1.41605">
        <ele>162</ele>
        <time>2019-11-26T11:30:07Z</time>
      </trkpt>
      <trkpt lat="45.30823" lon="1.41594">
        <ele>168</ele>
        <time>2019-11-26T11:30:12Z</time>
      </trkpt>
      <trkpt lat="45.30838" lon="1.41594">
        <ele>171</ele>
        <time>2019-11-26T11:30:17Z</time>
      </trkpt>
      <trkpt lat="45.30838" lon="1.41564">
        <ele>175</ele>
        <time>2019-11-26T11:30:22Z</time>
      </trkpt>
      <trkpt lat="45.30832" lon="1.41528">
        <ele>180</ele>
        <time>2019-11-26T11:30:27Z</time>
      </trkpt>
      <trkpt lat="45.30821" lon="1.41487">
        <ele>182</ele>
        <time>2019-11-26T11:30:32Z</time>
      </trkpt>
      <trkpt lat="45.30814" lon="1.41433">
        <ele>185</ele>
        <time>2019-11-26T11:30:37Z</time>
      </trkpt>
      <trkpt lat="45.30814" lon="1.41401">
        <ele>187</ele>
        <time>2019-11-26T11:30:42Z</time>
      </trkpt>
      <trkpt lat="45.30818" lon="1.41367">
        <ele>188</ele>
        <time>2019-11-26T11:30:47Z</time>
      </trkpt>
      <trkpt lat="45.30833" lon="1.41343">
        <ele>193</ele>
        <time>2019-11-26T11:30:52Z</time>
      </trkpt>
      <trkpt lat="45.30856" lon="1.41315">
        <ele>200</ele>
        <time>2019-11-26T11:30:57Z</time>
      </trkpt>
      <trkpt lat="45.3088" lon="1.41281">
        <ele>205</ele>
        <time>2019-11-26T11:31:02Z</time>
      </trkpt>
      <trkpt lat="45.30948" lon="1.41187">
        <ele>214</ele>
        <time>2019-11-26T11:31:07Z</time>
      </trkpt>
      <trkpt lat="45.30974" lon="1.41172">
        <ele>219</ele>
        <time>2019-11-26T11:31:12Z</time>
      </trkpt>
      <trkpt lat="45.30999" lon="1.41161">
        <ele>226</ele>
        <time>2019-11-26T11:31:17Z</time>
      </trkpt>
      <trkpt lat="45.31005" lon="1.41144">
        <ele>227</ele>
        <time>2019-11-26T11:31:22Z</time>
      </trkpt>
      <trkpt lat="45.31007" lon="1.41109">
        <ele>226</ele>
        <time>2019-11-26T11:31:27Z</time>
      </trkpt>
      <trkpt lat="45.31008" lon="1.41077">
        <ele>225</ele>
        <time>2019-11-26T11:31:32Z</time>
      </trkpt>
      <trkpt lat="45.31016" lon="1.4106">
        <ele>227</ele>
        <time>2019-11-26T11:31:37Z</time>
      </trkpt>
      <trkpt lat="45.31043" lon="1.41023">
        <ele>232</ele>
        <time>2019-11-26T11:31:42Z</time>
      </trkpt>
      <trkpt lat="45.31084" lon="1.40976">
        <ele>239</ele>
        <time>2019-11-26T11:31:47Z</time>
      </trkpt>
      <trkpt lat="45.31108" lon="1.40948">
        <ele>241</ele>
        <time>2019-11-26T11:31:52Z</time>
      </trkpt>
      <trkpt lat="45.31135" lon="1.40929">
        <ele>245</ele>
        <time>2019-11-26T11:31:57Z</time>
      </trkpt>
      <trkpt lat="45.3115" lon="1.40944">
        <ele>250</ele>
        <time>2019-11-26T11:32:02Z</time>
      </trkpt>
      <trkpt lat="45.31173" lon="1.40901">
        <ele>250</ele>
        <time>2019-11-26T11:32:07Z</time>
      </trkpt>
      <trkpt lat="45.31185" lon="1.40882">
        <ele>250</ele>
        <time>2019-11-26T11:32:12Z</time>
      </trkpt>
      <trkpt lat="45.312" lon="1.40901">
        <ele>256</ele>
        <time>2019-11-26T11:32:17Z</time>
      </trkpt>
      <trkpt lat="45.31218" lon="1.40886">
        <ele>257</ele>
        <time>2019-11-26T11:32:22Z</time>
      </trkpt>
      <trkpt lat="45.31235" lon="1.40882">
        <ele>260</ele>
        <time>2019-11-26T11:32:27Z</time>
      </trkpt>
      <trkpt lat="45.31262" lon="1.4091">
        <ele>269</ele>
        <time>2019-11-26T11:32:32Z</time>
      </trkpt>
      <trkpt lat="45.31275" lon="1.40903">
        <ele>271</ele>
        <time>2019-11-26T11:32:37Z</time>
      </trkpt>
      <trkpt lat="45.31286" lon="1.40914">
        <ele>274</ele>
        <time>2019-11-26T11:32:42Z</time>
      </trkpt>
      <trkpt lat="45.313" lon="1.40884">
        <ele>274</ele>
        <time>2019-11-26T11:32:47Z</time>
      </trkpt>
      <trkpt lat="45.31307" lon="1.40837">
        <ele>274</ele>
        <time>2019-11-26T11:32:52Z</time>
      </trkpt>
      <trkpt lat="45.31319" lon="1.40811">
        <ele>275</ele>
        <time>2019-11-26T11:32:57Z</time>
      </trkpt>
      <trkpt lat="45.31327" lon="1.4079">
        <ele>274</ele>
        <time>2019-11-26T11:33:02Z</time>
      </trkpt>
      <trkpt lat="45.31349" lon="1.40775">
        <ele>279</ele>
        <time>2019-11-26T11:33:07Z</time>
      </trkpt>
      <trkpt lat="45.31393" lon="1.40757">
        <ele>287</ele>
        <time>2019-11-26T11:33:12Z</time>
      </trkpt>
      <trkpt lat="45.31455" lon="1.40732">
        <ele>295</ele>
        <time>2019-11-26T11:33:17Z</time>
      </trkpt>
      <trkpt lat="45.31487" lon="1.40715">
        <ele>297</ele>
        <time>2019-11-26T11:33:22Z</time>
      </trkpt>
      <trkpt lat="45.31509" lon="1.40704">
        <ele>298</ele>
        <time>2019-11-26T11:33:27Z</time>
      </trkpt>
      <trkpt lat="45.31517" lon="1.40704">
        <ele>298</ele>
        <time>2019-11-26T11:33:32Z</time>
      </trkpt>
      <trkpt lat="45.31533" lon="1.40719">
        <ele>302</ele>
        <time>2019-11-26T11:33:37Z</time>
      </trkpt>
      <trkpt lat="45.31564" lon="1.40738">
        <ele>307</ele>
        <time>2019-11-26T11:33:42Z</time>
      </trkpt>
      <trkpt lat="45.31583" lon="1.40747">
        <ele>309</ele>
        <time>2019-11-26T11:33:47Z</time>
      </trkpt>
      <trkpt lat="45.31597" lon="1.40738">
        <ele>310</ele>
        <time>2019-11-26T11:33:52Z</time>
      </trkpt>
      <trkpt lat="45.31629" lon="1.4071">
        <ele>309</ele>
        <time>2019-11-26T11:33:57Z</time>
      </trkpt>
      <trkpt lat="45.31656" lon="1.40693">
        <ele>309</ele>
        <time>2019-11-26T11:34:02Z</time>
      </trkpt>
      <trkpt lat="45.31695" lon="1.40667">
        <ele>309</ele>
        <time>2019-11-26T11:34:07Z</time>
      </trkpt>
      <trkpt lat="45.31718" lon="1.40654">
        <ele>309</ele>
        <time>2019-11-26T11:34:12Z</time>
      </trkpt>
      <trkpt lat="45.31751" lon="1.40646">
        <ele>312</ele>
        <time>2019-11-26T11:34:17Z</time>
      </trkpt>
      <trkpt lat="45.31835" lon="1.40637">
        <ele>324</ele>
        <time>2019-11-26T11:34:22Z</time>
      </trkpt>
      <trkpt lat="45.31844" lon="1.4062">
        <ele>322</ele>
        <time>2019-11-26T11:34:27Z</time>
      </trkpt>
      <trkpt lat="45.31852" lon="1.40603">
        <ele>319</ele>
        <time>2019-11-26T11:34:32Z</time>
      </trkpt>
      <trkpt lat="45.31861" lon="1.40588">
        <ele>318</ele>
        <time>2019-11-26T11:34:37Z</time>
      </trkpt>
      <trkpt lat="45.31879" lon="1.40569">
        <ele>320</ele>
        <time>2019-11-26T11:34:42Z</time>
      </trkpt>
      <trkpt lat="45.31884" lon="1.40558">
        <ele>320</ele>
        <time>2019-11-26T11:34:47Z</time>
      </trkpt>
      <trkpt lat="45.31884" lon="1.40524">
        <ele>321</ele>
        <time>2019-11-26T11:34:52Z</time>
      </trkpt>
      <trkpt lat="45.31891" lon="1.40493">
        <ele>322</ele>
        <time>2019-11-26T11:34:57Z</time>
      </trkpt>
      <trkpt lat="45.31893" lon="1.40476">
        <ele>323</ele>
        <time>2019-11-26T11:35:02Z</time>
      </trkpt>
      <trkpt lat="45.31906" lon="1.40458">
        <ele>326</ele>
        <time>2019-11-26T11:35:07Z</time>
      </trkpt>
      <trkpt lat="45.31924" lon="1.40432">
        <ele>329</ele>
        <time>2019-11-26T11:35:12Z</time>
      </trkpt>
      <trkpt lat="45.31932" lon="1.40402">
        <ele>331</ele>
        <time>2019-11-26T11:35:17Z</time>
      </trkpt>
      <trkpt lat="45.31908" lon="1.4037">
        <ele>329</ele>
        <time>2019-11-26T11:35:22Z</time>
      </trkpt>
      <trkpt lat="45.31864" lon="1.40335">
        <ele>321</ele>
        <time>2019-11-26T11:35:27Z</time>
      </trkpt>
      <trkpt lat="45.31852" lon="1.40301">
        <ele>321</ele>
        <time>2019-11-26T11:35:32Z</time>
      </trkpt>
      <trkpt lat="45.31867" lon="1.40265">
        <ele>324</ele>
        <time>2019-11-26T11:35:37Z</time>
      </trkpt>
      <trkpt lat="45.31837" lon="1.40211">
        <ele>324</ele>
        <time>2019-11-26T11:35:42Z</time>
      </trkpt>
      <trkpt lat="45.31799" lon="1.40194">
        <ele>320</ele>
        <time>2019-11-26T11:35:47Z</time>
      </trkpt>
      <trkpt lat="45.31769" lon="1.40177">
        <ele>316</ele>
        <time>2019-11-26T11:35:52Z</time>
      </trkpt>
      <trkpt lat="45.31727" lon="1.40151">
        <ele>310</ele>
        <time>2019-11-26T11:35:57Z</time>
      </trkpt>
      <trkpt lat="45.31686" lon="1.40117">
        <ele>304</ele>
        <time>2019-11-26T11:36:02Z</time>
      </trkpt>
      <trkpt lat="45.31665" lon="1.40083">
        <ele>301</ele>
        <time>2019-11-26T11:36:07Z</time>
      </trkpt>
      <trkpt lat="45.31651" lon="1.40048">
        <ele>298</ele>
        <time>2019-11-26T11:36:12Z</time>
      </trkpt>
      <trkpt lat="45.3165" lon="1.40013">
        <ele>296</ele>
        <time>2019-11-26T11:36:17Z</time>
      </trkpt>
      <trkpt lat="45.31677" lon="1.39998">
        <ele>299</ele>
        <time>2019-11-26T11:36:22Z</time>
      </trkpt>
      <trkpt lat="45.31734" lon="1.39985">
        <ele>304</ele>
        <time>2019-11-26T11:36:27Z</time>
      </trkpt>
      <trkpt lat="45.31752" lon="1.39994">
        <ele>307</ele>
        <time>2019-11-26T11:36:32Z</time>
      </trkpt>
      <trkpt lat="45.31785" lon="1.39981">
        <ele>310</ele>
        <time>2019-11-26T11:36:37Z</time>
      </trkpt>
      <trkpt lat="45.31828" lon="1.39966">
        <ele>312</ele>
        <time>2019-11-26T11:36:42Z</time>
      </trkpt>
      <trkpt lat="45.31849" lon="1.39966">
        <ele>315</ele>
        <time>2019-11-26T11:36:47Z</time>
      </trkpt>
      <trkpt lat="45.31873" lon="1.39966">
        <ele>318</ele>
        <time>2019-11-26T11:36:52Z</time>
      </trkpt>
      <trkpt lat="45.319" lon="1.39961">
        <ele>320</ele>
        <time>2019-11-26T11:36:57Z</time>
      </trkpt>
      <trkpt lat="45.31909" lon="1.3994">
        <ele>319</ele>
        <time>2019-11-26T11:37:02Z</time>
      </trkpt>
      <trkpt lat="45.31918" lon="1.39923">
        <ele>319</ele>
        <time>2019-11-26T11:37:07Z</time>
      </trkpt>
      <trkpt lat="45.31929" lon="1.39908">
        <ele>319</ele>
        <time>2019-11-26T11:37:12Z</time>
      </trkpt>
      <trkpt lat="45.31965" lon="1.39895">
        <ele>323</ele>
        <time>2019-11-26T11:37:17Z</time>
      </trkpt>
      <trkpt lat="45.32006" lon="1.39891">
        <ele>328</ele>
        <time>2019-11-26T11:37:22Z</time>
      </trkpt>
      <trkpt lat="45.3203" lon="1.39884">
        <ele>328</ele>
        <time>2019-11-26T11:37:27Z</time>
      </trkpt>
      <trkpt lat="45.32065" lon="1.39901">
        <ele>331</ele>
        <time>2019-11-26T11:37:32Z</time>
      </trkpt>
      <trkpt lat="45.32105" lon="1.39903">
        <ele>332</ele>
        <time>2019-11-26T11:37:37Z</time>
      </trkpt>
      <trkpt lat="45.32149" lon="1.39893">
        <ele>331</ele>
        <time>2019-11-26T11:37:42Z</time>
      </trkpt>
      <trkpt lat="45.32202" lon="1.39891">
        <ele>333</ele>
        <time>2019-11-26T11:37:47Z</time>
      </trkpt>
      <trkpt lat="45.32228" lon="1.39891">
        <ele>335</ele>
        <time>2019-11-26T11:37:52Z</time>
      </trkpt>
      <trkpt lat="45.32259" lon="1.39891">
        <ele>337</ele>
        <time>2019-11-26T11:37:57Z</time>
      </trkpt>
      <trkpt lat="45.32279" lon="1.39888">
        <ele>338</ele>
        <time>2019-11-26T11:38:02Z</time>
      </trkpt>
      <trkpt lat="45.32304" lon="1.39867">
        <ele>339</ele>
        <time>2019-11-26T11:38:07Z</time>
      </trkpt>
      <trkpt lat="45.32338" lon="1.39886">
        <ele>342</ele>
        <time>2019-11-26T11:38:12Z</time>
      </trkpt>
      <trkpt lat="45.3238" lon="1.39914">
        <ele>346</ele>
        <time>2019-11-26T11:38:17Z</time>
      </trkpt>
      <trkpt lat="45.32409" lon="1.3994">
        <ele>349</ele>
        <time>2019-11-26T11:38:22Z</time>
      </trkpt>
      <trkpt lat="45.32424" lon="1.39865">
        <ele>344</ele>
        <time>2019-11-26T11:38:27Z</time>
      </trkpt>
      <trkpt lat="45.3243" lon="1.39828">
        <ele>342</ele>
        <time>2019-11-26T11:38:32Z</time>
      </trkpt>
      <trkpt lat="45.32443" lon="1.39811">
        <ele>343</ele>
        <time>2019-11-26T11:38:37Z</time>
      </trkpt>
      <trkpt lat="45.32396" lon="1.39736">
        <ele>335</ele>
        <time>2019-11-26T11:38:42Z</time>
      </trkpt>
      <trkpt lat="45.32366" lon="1.39695">
        <ele>328</ele>
        <time>2019-11-26T11:38:47Z</time>
      </trkpt>
      <trkpt lat="45.3235" lon="1.3965">
        <ele>321</ele>
        <time>2019-11-26T11:38:52Z</time>
      </trkpt>
      <trkpt lat="45.32356" lon="1.39629">
        <ele>321</ele>
        <time>2019-11-26T11:38:57Z</time>
      </trkpt>
      <trkpt lat="45.32371" lon="1.39601">
        <ele>322</ele>
        <time>2019-11-26T11:39:02Z</time>
      </trkpt>
      <trkpt lat="45.32353" lon="1.3953">
        <ele>324</ele>
        <time>2019-11-26T11:39:07Z</time>
      </trkpt>
      <trkpt lat="45.32323" lon="1.39549">
        <ele>323</ele>
        <time>2019-11-26T11:39:12Z</time>
      </trkpt>
      <trkpt lat="45.32292" lon="1.3959">
        <ele>319</ele>
        <time>2019-11-26T11:39:17Z</time>
      </trkpt>
      <trkpt lat="45.32256" lon="1.39601">
        <ele>318</ele>
        <time>2019-11-26T11:39:22Z</time>
      </trkpt>
      <trkpt lat="45.32185" lon="1.39567">
        <ele>314</ele>
        <time>2019-11-26T11:39:27Z</time>
      </trkpt>
      <trkpt lat="45.32099" lon="1.39528">
        <ele>312</ele>
        <time>2019-11-26T11:39:32Z</time>
      </trkpt>
      <trkpt lat="45.32036" lon="1.39513">
        <ele>303</ele>
        <time>2019-11-26T11:39:37Z</time>
      </trkpt>
      <trkpt lat="45.32013" lon="1.39511">
        <ele>299</ele>
        <time>2019-11-26T11:39:42Z</time>
      </trkpt>
      <trkpt lat="45.32001" lon="1.39466">
        <ele>304</ele>
        <time>2019-11-26T11:39:47Z</time>
      </trkpt>
      <trkpt lat="45.31971" lon="1.39442">
        <ele>301</ele>
        <time>2019-11-26T11:39:52Z</time>
      </trkpt>
      <trkpt lat="45.31905" lon="1.39434">
        <ele>285</ele>
        <time>2019-11-26T11:39:57Z</time>
      </trkpt>
      <trkpt lat="45.31905" lon="1.39412">
        <ele>288</ele>
        <time>2019-11-26T11:40:02Z</time>
      </trkpt>
      <trkpt lat="45.31893" lon="1.39373">
        <ele>286</ele>
        <time>2019-11-26T11:40:07Z</time>
      </trkpt>
      <trkpt lat="45.3189" lon="1.39307">
        <ele>283</ele>
        <time>2019-11-26T11:40:12Z</time>
      </trkpt>
      <trkpt lat="45.31897" lon="1.39243">
        <ele>278</ele>
        <time>2019-11-26T11:40:17Z</time>
      </trkpt>
      <trkpt lat="45.31926" lon="1.39174">
        <ele>274</ele>
        <time>2019-11-26T11:40:22Z</time>
      </trkpt>
      <trkpt lat="45.31954" lon="1.39118">
        <ele>271</ele>
        <time>2019-11-26T11:40:27Z</time>
      </trkpt>
      <trkpt lat="45.31956" lon="1.39075">
        <ele>263</ele>
        <time>2019-11-26T11:40:32Z</time>
      </trkpt>
      <trkpt lat="45.31979" lon="1.39032">
        <ele>262</ele>
        <time>2019-11-26T11:40:37Z</time>
      </trkpt>
      <trkpt lat="45.31995" lon="1.38996">
        <ele>260</ele>
        <time>2019-11-26T11:40:42Z</time>
      </trkpt>
      <trkpt lat="45.32004" lon="1.38959">
        <ele>259</ele>
        <time>2019-11-26T11:40:47Z</time>
      </trkpt>
      <trkpt lat="45.32028" lon="1.38929">
        <ele>262</ele>
        <time>2019-11-26T11:40:52Z</time>
      </trkpt>
      <trkpt lat="45.32056" lon="1.38904">
        <ele>264</ele>
        <time>2019-11-26T11:40:57Z</time>
      </trkpt>
      <trkpt lat="45.32065" lon="1.38871">
        <ele>264</ele>
        <time>2019-11-26T11:41:02Z</time>
      </trkpt>
      <trkpt lat="45.3212" lon="1.38831">
        <ele>268</ele>
        <time>2019-11-26T11:41:07Z</time>
      </trkpt>
      <trkpt lat="45.32148" lon="1.38833">
        <ele>271</ele>
        <time>2019-11-26T11:41:12Z</time>
      </trkpt>
      <trkpt lat="45.32166" lon="1.38807">
        <ele>269</ele>
        <time>2019-11-26T11:41:17Z</time>
      </trkpt>
      <trkpt lat="45.32193" lon="1.38816">
        <ele>272</ele>
        <time>2019-11-26T11:41:22Z</time>
      </trkpt>
      <trkpt lat="45.32203" lon="1.38781">
        <ele>269</ele>
        <time>2019-11-26T11:41:27Z</time>
      </trkpt>
      <trkpt lat="45.32224" lon="1.38773">
        <ele>269</ele>
        <time>2019-11-26T11:41:32Z</time>
      </trkpt>
      <trkpt lat="45.32264" lon="1.38788">
        <ele>275</ele>
        <time>2019-11-26T11:41:37Z</time>
      </trkpt>
      <trkpt lat="45.32291" lon="1.38809">
        <ele>281</ele>
        <time>2019-11-26T11:41:42Z</time>
      </trkpt>
      <trkpt lat="45.32307" lon="1.38803">
        <ele>281</ele>
        <time>2019-11-26T11:41:47Z</time>
      </trkpt>
      <trkpt lat="45.32339" lon="1.3879">
        <ele>283</ele>
        <time>2019-11-26T11:41:52Z</time>
      </trkpt>
      <trkpt lat="45.32348" lon="1.38738">
        <ele>277</ele>
        <time>2019-11-26T11:41:57Z</time>
      </trkpt>
      <trkpt lat="45.32366" lon="1.38708">
        <ele>276</ele>
        <time>2019-11-26T11:42:02Z</time>
      </trkpt>
      <trkpt lat="45.3239" lon="1.38691">
        <ele>275</ele>
        <time>2019-11-26T11:42:07Z</time>
      </trkpt>
      <trkpt lat="45.32425" lon="1.38665">
        <ele>272</ele>
        <time>2019-11-26T11:42:12Z</time>
      </trkpt>
      <trkpt lat="45.32448" lon="1.38678">
        <ele>276</ele>
        <time>2019-11-26T11:42:17Z</time>
      </trkpt>
      <trkpt lat="45.32472" lon="1.38695">
        <ele>281</ele>
        <time>2019-11-26T11:42:22Z</time>
      </trkpt>
      <trkpt lat="45.32507" lon="1.38732">
        <ele>292</ele>
        <time>2019-11-26T11:42:27Z</time>
      </trkpt>
      <trkpt lat="45.32514" lon="1.38704">
        <ele>288</ele>
        <time>2019-11-26T11:42:32Z</time>
      </trkpt>
      <trkpt lat="45.32511" lon="1.38667">
        <ele>280</ele>
        <time>2019-11-26T11:42:37Z</time>
      </trkpt>
      <trkpt lat="45.32505" lon="1.38612">
        <ele>269</ele>
        <time>2019-11-26T11:42:42Z</time>
      </trkpt>
      <trkpt lat="45.32511" lon="1.38552">
        <ele>265</ele>
        <time>2019-11-26T11:42:47Z</time>
      </trkpt>
      <trkpt lat="45.32511" lon="1.38517">
        <ele>262</ele>
        <time>2019-11-26T11:42:52Z</time>
      </trkpt>
      <trkpt lat="45.32496" lon="1.3847">
        <ele>255</ele>
        <time>2019-11-26T11:42:57Z</time>
      </trkpt>
      <trkpt lat="45.32511" lon="1.38438">
        <ele>258</ele>
        <time>2019-11-26T11:43:02Z</time>
      </trkpt>
      <trkpt lat="45.32526" lon="1.38393">
        <ele>256</ele>
        <time>2019-11-26T11:43:07Z</time>
      </trkpt>
      <trkpt lat="45.3255" lon="1.38393">
        <ele>261</ele>
        <time>2019-11-26T11:43:12Z</time>
      </trkpt>
      <trkpt lat="45.32573" lon="1.38378">
        <ele>264</ele>
        <time>2019-11-26T11:43:17Z</time>
      </trkpt>
      <trkpt lat="45.32591" lon="1.38328">
        <ele>260</ele>
        <time>2019-11-26T11:43:22Z</time>
      </trkpt>
      <trkpt lat="45.32621" lon="1.38279">
        <ele>255</ele>
        <time>2019-11-26T11:43:27Z</time>
      </trkpt>
      <trkpt lat="45.3265" lon="1.38245">
        <ele>254</ele>
        <time>2019-11-26T11:43:32Z</time>
      </trkpt>
      <trkpt lat="45.32689" lon="1.3823">
        <ele>260</ele>
        <time>2019-11-26T11:43:37Z</time>
      </trkpt>
      <trkpt lat="45.32718" lon="1.38206">
        <ele>259</ele>
        <time>2019-11-26T11:43:42Z</time>
      </trkpt>
      <trkpt lat="45.32759" lon="1.38174">
        <ele>259</ele>
        <time>2019-11-26T11:43:47Z</time>
      </trkpt>
      <trkpt lat="45.32793" lon="1.38157">
        <ele>260</ele>
        <time>2019-11-26T11:43:52Z</time>
      </trkpt>
      <trkpt lat="45.32823" lon="1.38133">
        <ele>258</ele>
        <time>2019-11-26T11:43:57Z</time>
      </trkpt>
      <trkpt lat="45.32861" lon="1.38118">
        <ele>257</ele>
        <time>2019-11-26T11:44:02Z</time>
      </trkpt>
      <trkpt lat="45.32894" lon="1.38133">
        <ele>265</ele>
        <time>2019-11-26T11:44:07Z</time>
      </trkpt>
      <trkpt lat="45.32918" lon="1.38191">
        <ele>284</ele>
        <time>2019-11-26T11:44:12Z</time>
      </trkpt>
      <trkpt lat="45.32923" lon="1.38228">
        <ele>291</ele>
        <time>2019-11-26T11:44:17Z</time>
      </trkpt>
      <trkpt lat="45.32921" lon="1.38268">
        <ele>298</ele>
        <time>2019-11-26T11:44:22Z</time>
      </trkpt>
      <trkpt lat="45.32891" lon="1.38333">
        <ele>310</ele>
        <time>2019-11-26T11:44:27Z</time>
      </trkpt>
      <trkpt lat="45.32872" lon="1.38401">
        <ele>316</ele>
        <time>2019-11-26T11:44:32Z</time>
      </trkpt>
      <trkpt lat="45.32873" lon="1.38446">
        <ele>320</ele>
        <time>2019-11-26T11:44:37Z</time>
      </trkpt>
      <trkpt lat="45.3289" lon="1.38474">
        <ele>323</ele>
        <time>2019-11-26T11:44:42Z</time>
      </trkpt>
      <trkpt lat="45.32908" lon="1.38457">
        <ele>320</ele>
        <time>2019-11-26T11:44:47Z</time>
      </trkpt>
      <trkpt lat="45.32937" lon="1.38461">
        <ele>320</ele>
        <time>2019-11-26T11:44:52Z</time>
      </trkpt>
      <trkpt lat="45.32949" lon="1.38492">
        <ele>324</ele>
        <time>2019-11-26T11:44:57Z</time>
      </trkpt>
      <trkpt lat="45.32958" lon="1.38543">
        <ele>329</ele>
        <time>2019-11-26T11:45:02Z</time>
      </trkpt>
      <trkpt lat="45.3297" lon="1.3859">
        <ele>334</ele>
        <time>2019-11-26T11:45:07Z</time>
      </trkpt>
      <trkpt lat="45.3295" lon="1.38614">
        <ele>336</ele>
        <time>2019-11-26T11:45:12Z</time>
      </trkpt>
      <trkpt lat="45.32944" lon="1.3865">
        <ele>339</ele>
        <time>2019-11-26T11:45:17Z</time>
      </trkpt>
      <trkpt lat="45.3294" lon="1.38698">
        <ele>341</ele>
        <time>2019-11-26T11:45:22Z</time>
      </trkpt>
      <trkpt lat="45.32934" lon="1.3874">
        <ele>341</ele>
        <time>2019-11-26T11:45:27Z</time>
      </trkpt>
      <trkpt lat="45.32953" lon="1.3877">
        <ele>343</ele>
        <time>2019-11-26T11:45:32Z</time>
      </trkpt>
      <trkpt lat="45.32971" lon="1.38811">
        <ele>346</ele>
        <time>2019-11-26T11:45:37Z</time>
      </trkpt>
      <trkpt lat="45.32991" lon="1.38873">
        <ele>350</ele>
        <time>2019-11-26T11:45:42Z</time>
      </trkpt>
      <trkpt lat="45.33014" lon="1.38921">
        <ele>354</ele>
        <time>2019-11-26T11:45:47Z</time>
      </trkpt>
      <trkpt lat="45.33024" lon="1.38966">
        <ele>355</ele>
        <time>2019-11-26T11:45:52Z</time>
      </trkpt>
      <trkpt lat="45.33051" lon="1.39009">
        <ele>356</ele>
        <time>2019-11-26T11:45:57Z</time>
      </trkpt>
      <trkpt lat="45.33098" lon="1.39082">
        <ele>353</ele>
        <time>2019-11-26T11:46:02Z</time>
      </trkpt>
      <trkpt lat="45.33155" lon="1.39165">
        <ele>356</ele>
        <time>2019-11-26T11:46:07Z</time>
      </trkpt>
      <trkpt lat="45.33204" lon="1.39238">
        <ele>357</ele>
        <time>2019-11-26T11:46:12Z</time>
      </trkpt>
      <trkpt lat="45.33243" lon="1.39339">
        <ele>359</ele>
        <time>2019-11-26T11:46:17Z</time>
      </trkpt>
      <trkpt lat="45.33293" lon="1.39423">
        <ele>361</ele>
        <time>2019-11-26T11:46:22Z</time>
      </trkpt>
      <trkpt lat="45.33312" lon="1.39457">
        <ele>361</ele>
        <time>2019-11-26T11:46:27Z</time>
      </trkpt>
      <trkpt lat="45.333" lon="1.39631">
        <ele>363</ele>
        <time>2019-11-26T11:46:32Z</time>
      </trkpt>
      <trkpt lat="45.33299" lon="1.39719">
        <ele>365</ele>
        <time>2019-11-26T11:46:37Z</time>
      </trkpt>
      <trkpt lat="45.33281" lon="1.39738">
        <ele>366</ele>
        <time>2019-11-26T11:46:42Z</time>
      </trkpt>
      <trkpt lat="45.33256" lon="1.39738">
        <ele>365</ele>
        <time>2019-11-26T11:46:47Z</time>
      </trkpt>
      <trkpt lat="45.33231" lon="1.39749">
        <ele>364</ele>
        <time>2019-11-26T11:46:52Z</time>
      </trkpt>
      <trkpt lat="45.33199" lon="1.39768">
        <ele>363</ele>
        <time>2019-11-26T11:46:57Z</time>
      </trkpt>
      <trkpt lat="45.33169" lon="1.39798">
        <ele>363</ele>
        <time>2019-11-26T11:47:02Z</time>
      </trkpt>
      <trkpt lat="45.33143" lon="1.39835">
        <ele>366</ele>
        <time>2019-11-26T11:47:07Z</time>
      </trkpt>
      <trkpt lat="45.33151" lon="1.39854">
        <ele>367</ele>
        <time>2019-11-26T11:47:12Z</time>
      </trkpt>
      <trkpt lat="45.33148" lon="1.39908">
        <ele>372</ele>
        <time>2019-11-26T11:47:17Z</time>
      </trkpt>
      <trkpt lat="45.33134" lon="1.39987">
        <ele>375</ele>
        <time>2019-11-26T11:47:22Z</time>
      </trkpt>
      <trkpt lat="45.33106" lon="1.40152">
        <ele>382</ele>
        <time>2019-11-26T11:47:27Z</time>
      </trkpt>
      <trkpt lat="45.33048" lon="1.40152">
        <ele>382</ele>
        <time>2019-11-26T11:47:32Z</time>
      </trkpt>
      <trkpt lat="45.32965" lon="1.40142">
        <ele>380</ele>
        <time>2019-11-26T11:47:37Z</time>
      </trkpt>
      <trkpt lat="45.32995" lon="1.40215">
        <ele>381</ele>
        <time>2019-11-26T11:47:42Z</time>
      </trkpt>
      <trkpt lat="45.3302" lon="1.40251">
        <ele>381</ele>
        <time>2019-11-26T11:47:47Z</time>
      </trkpt>
      <trkpt lat="45.33036" lon="1.40322">
        <ele>381</ele>
        <time>2019-11-26T11:47:52Z</time>
      </trkpt>
      <trkpt lat="45.33051" lon="1.4033">
        <ele>381</ele>
        <time>2019-11-26T11:47:57Z</time>
      </trkpt>
      <trkpt lat="45.33084" lon="1.40356">
        <ele>381</ele>
        <time>2019-11-26T11:48:02Z</time>
      </trkpt>
      <trkpt lat="45.33119" lon="1.40416">
        <ele>382</ele>
        <time>2019-11-26T11:48:07Z</time>
      </trkpt>
      <trkpt lat="45.33149" lon="1.40521">
        <ele>375</ele>
        <time>2019-11-26T11:48:12Z</time>
      </trkpt>
      <trkpt lat="45.33166" lon="1.4062">
        <ele>366</ele>
        <time>2019-11-26T11:48:17Z</time>
      </trkpt>
      <trkpt lat="45.3317" lon="1.40652">
        <ele>364</ele>
        <time>2019-11-26T11:48:22Z</time>
      </trkpt>
      <trkpt lat="45.33155" lon="1.40682">
        <ele>363</ele>
        <time>2019-11-26T11:48:27Z</time>
      </trkpt>
      <trkpt lat="45.3314" lon="1.4073">
        <ele>360</ele>
        <time>2019-11-26T11:48:32Z</time>
      </trkpt>
      <trkpt lat="45.33131" lon="1.40766">
        <ele>357</ele>
        <time>2019-11-26T11:48:37Z</time>
      </trkpt>
      <trkpt lat="45.33169" lon="1.40767">
        <ele>354</ele>
        <time>2019-11-26T11:48:42Z</time>
      </trkpt>
      <trkpt lat="45.33199" lon="1.40786">
        <ele>352</ele>
        <time>2019-11-26T11:48:47Z</time>
      </trkpt>
      <trkpt lat="45.33217" lon="1.40825">
        <ele>349</ele>
        <time>2019-11-26T11:48:52Z</time>
      </trkpt>
      <trkpt lat="45.33214" lon="1.40862">
        <ele>350</ele>
        <time>2019-11-26T11:48:57Z</time>
      </trkpt>
      <trkpt lat="45.33191" lon="1.40898">
        <ele>351</ele>
        <time>2019-11-26T11:49:02Z</time>
      </trkpt>
      <trkpt lat="45.33174" lon="1.40933">
        <ele>351</ele>
        <time>2019-11-26T11:49:07Z</time>
      </trkpt>
      <trkpt lat="45.33187" lon="1.40971">
        <ele>354</ele>
        <time>2019-11-26T11:49:12Z</time>
      </trkpt>
      <trkpt lat="45.33219" lon="1.41016">
        <ele>358</ele>
        <time>2019-11-26T11:49:17Z</time>
      </trkpt>
      <trkpt lat="45.33244" lon="1.41063">
        <ele>360</ele>
        <time>2019-11-26T11:49:22Z</time>
      </trkpt>
      <trkpt lat="45.3327" lon="1.4113">
        <ele>364</ele>
        <time>2019-11-26T11:49:27Z</time>
      </trkpt>
      <trkpt lat="45.33289" lon="1.41166">
        <ele>366</ele>
        <time>2019-11-26T11:49:32Z</time>
      </trkpt>
      <trkpt lat="45.33304" lon="1.41198">
        <ele>367</ele>
        <time>2019-11-26T11:49:37Z</time>
      </trkpt>
      <trkpt lat="45.33314" lon="1.41239">
        <ele>369</ele>
        <time>2019-11-26T11:49:42Z</time>
      </trkpt>
      <trkpt lat="45.33328" lon="1.41275">
        <ele>369</ele>
        <time>2019-11-26T11:49:47Z</time>
      </trkpt>
      <trkpt lat="45.33342" lon="1.41297">
        <ele>371</ele>
        <time>2019-11-26T11:49:52Z</time>
      </trkpt>
      <trkpt lat="45.33348" lon="1.41308">
        <ele>371</ele>
        <time>2019-11-26T11:49:57Z</time>
      </trkpt>
      <trkpt lat="45.3331" lon="1.41294">
        <ele>369</ele>
        <time>2019-11-26T11:50:02Z</time>
      </trkpt>
      <trkpt lat="45.33265" lon="1.4128">
        <ele>368</ele>
        <time>2019-11-26T11:50:07Z</time>
      </trkpt>
      <trkpt lat="45.33229" lon="1.41269">
        <ele>368</ele>
        <time>2019-11-26T11:50:12Z</time>
      </trkpt>
      <trkpt lat="45.33197" lon="1.41272">
        <ele>366</ele>
        <time>2019-11-26T11:50:17Z</time>
      </trkpt>
      <trkpt lat="45.33161" lon="1.41286">
        <ele>365</ele>
        <time>2019-11-26T11:50:22Z</time>
      </trkpt>
      <trkpt lat="45.33119" lon="1.41316">
        <ele>364</ele>
        <time>2019-11-26T11:50:27Z</time>
      </trkpt>
      <trkpt lat="45.33084" lon="1.41354">
        <ele>364</ele>
        <time>2019-11-26T11:50:32Z</time>
      </trkpt>
      <trkpt lat="45.33072" lon="1.41374">
        <ele>362</ele>
        <time>2019-11-26T11:50:37Z</time>
      </trkpt>
      <trkpt lat="45.33056" lon="1.41394">
        <ele>362</ele>
        <time>2019-11-26T11:50:42Z</time>
      </trkpt>
      <trkpt lat="45.3306" lon="1.41442">
        <ele>358</ele>
        <time>2019-11-26T11:50:47Z</time>
      </trkpt>
      <trkpt lat="45.33075" lon="1.41566">
        <ele>348</ele>
        <time>2019-11-26T11:50:52Z</time>
      </trkpt>
      <trkpt lat="45.33075" lon="1.41588">
        <ele>348</ele>
        <time>2019-11-26T11:50:57Z</time>
      </trkpt>
      <trkpt lat="45.33082" lon="1.416">
        <ele>347</ele>
        <time>2019-11-26T11:51:02Z</time>
      </trkpt>
      <trkpt lat="45.33084" lon="1.4162">
        <ele>347</ele>
        <time>2019-11-26T11:51:07Z</time>
      </trkpt>
      <trkpt lat="45.3309" lon="1.41684">
        <ele>346</ele>
        <time>2019-11-26T11:51:12Z</time>
      </trkpt>
      <trkpt lat="45.33089" lon="1.41747">
        <ele>342</ele>
        <time>2019-11-26T11:51:17Z</time>
      </trkpt>
      <trkpt lat="45.33065" lon="1.41854">
        <ele>331</ele>
        <time>2019-11-26T11:51:22Z</time>
      </trkpt>
      <trkpt lat="45.33051" lon="1.41912">
        <ele>326</ele>
        <time>2019-11-26T11:51:27Z</time>
      </trkpt>
      <trkpt lat="45.33033" lon="1.41963">
        <ele>320</ele>
        <time>2019-11-26T11:51:32Z</time>
      </trkpt>
      <trkpt lat="45.3302" lon="1.42017">
        <ele>312</ele>
        <time>2019-11-26T11:51:37Z</time>
      </trkpt>
      <trkpt lat="45.33007" lon="1.42043">
        <ele>307</ele>
        <time>2019-11-26T11:51:42Z</time>
      </trkpt>
      <trkpt lat="45.32986" lon="1.42064">
        <ele>302</ele>
        <time>2019-11-26T11:51:47Z</time>
      </trkpt>
      <trkpt lat="45.32953" lon="1.42073">
        <ele>300</ele>
        <time>2019-11-26T11:51:52Z</time>
      </trkpt>
      <trkpt lat="45.32934" lon="1.42086">
        <ele>298</ele>
        <time>2019-11-26T11:51:57Z</time>
      </trkpt>
      <trkpt lat="45.32915" lon="1.42122">
        <ele>303</ele>
        <time>2019-11-26T11:52:02Z</time>
      </trkpt>
      <trkpt lat="45.32881" lon="1.42124">
        <ele>302</ele>
        <time>2019-11-26T11:52:07Z</time>
      </trkpt>
      <trkpt lat="45.32855" lon="1.42148">
        <ele>305</ele>
        <time>2019-11-26T11:52:12Z</time>
      </trkpt>
      <trkpt lat="45.3281" lon="1.42152">
        <ele>306</ele>
        <time>2019-11-26T11:52:17Z</time>
      </trkpt>
      <trkpt lat="45.32775" lon="1.42159">
        <ele>309</ele>
        <time>2019-11-26T11:52:22Z</time>
      </trkpt>
      <trkpt lat="45.32742" lon="1.4218">
        <ele>312</ele>
        <time>2019-11-26T11:52:27Z</time>
      </trkpt>
      <trkpt lat="45.32724" lon="1.42189">
        <ele>313</ele>
        <time>2019-11-26T11:52:32Z</time>
      </trkpt>
      <trkpt lat="45.32692" lon="1.42199">
        <ele>313</ele>
        <time>2019-11-26T11:52:37Z</time>
      </trkpt>
      <trkpt lat="45.32656" lon="1.42204">
        <ele>313</ele>
        <time>2019-11-26T11:52:42Z</time>
      </trkpt>
      <trkpt lat="45.32635" lon="1.42204">
        <ele>312</ele>
        <time>2019-11-26T11:52:47Z</time>
      </trkpt>
      <trkpt lat="45.32606" lon="1.42202">
        <ele>312</ele>
        <time>2019-11-26T11:52:52Z</time>
      </trkpt>
      <trkpt lat="45.32597" lon="1.42197">
        <ele>311</ele>
        <time>2019-11-26T11:52:57Z</time>
      </trkpt>
      <trkpt lat="45.32587" lon="1.42199">
        <ele>311</ele>
        <time>2019-11-26T11:53:02Z</time>
      </trkpt>
      <trkpt lat="45.32576" lon="1.42238">
        <ele>316</ele>
        <time>2019-11-26T11:53:07Z</time>
      </trkpt>
      <trkpt lat="45.32564" lon="1.42274">
        <ele>321</ele>
        <time>2019-11-26T11:53:12Z</time>
      </trkpt>
      <trkpt lat="45.32544" lon="1.42315">
        <ele>326</ele>
        <time>2019-11-26T11:53:17Z</time>
      </trkpt>
      <trkpt lat="45.32517" lon="1.42369">
        <ele>328</ele>
        <time>2019-11-26T11:53:22Z</time>
      </trkpt>
      <trkpt lat="45.32511" lon="1.42388">
        <ele>329</ele>
        <time>2019-11-26T11:53:27Z</time>
      </trkpt>
      <trkpt lat="45.3251" lon="1.42405">
        <ele>329</ele>
        <time>2019-11-26T11:53:32Z</time>
      </trkpt>
      <trkpt lat="45.32434" lon="1.42405">
        <ele>325</ele>
        <time>2019-11-26T11:53:37Z</time>
      </trkpt>
      <trkpt lat="45.32407" lon="1.42402">
        <ele>323</ele>
        <time>2019-11-26T11:53:42Z</time>
      </trkpt>
      <trkpt lat="45.32377" lon="1.42398">
        <ele>320</ele>
        <time>2019-11-26T11:53:47Z</time>
      </trkpt>
      <trkpt lat="45.32356" lon="1.42381">
        <ele>318</ele>
        <time>2019-11-26T11:53:52Z</time>
      </trkpt>
      <trkpt lat="45.32336" lon="1.42366">
        <ele>316</ele>
        <time>2019-11-26T11:53:57Z</time>
      </trkpt>
      <trkpt lat="45.3231" lon="1.42361">
        <ele>314</ele>
        <time>2019-11-26T11:54:02Z</time>
      </trkpt>
      <trkpt lat="45.32285" lon="1.42357">
        <ele>312</ele>
        <time>2019-11-26T11:54:07Z</time>
      </trkpt>
      <trkpt lat="45.32259" lon="1.42346">
        <ele>311</ele>
        <time>2019-11-26T11:54:12Z</time>
      </trkpt>
      <trkpt lat="45.32241" lon="1.42325">
        <ele>311</ele>
        <time>2019-11-26T11:54:17Z</time>
      </trkpt>
      <trkpt lat="45.32224" lon="1.42301">
        <ele>309</ele>
        <time>2019-11-26T11:54:22Z</time>
      </trkpt>
      <trkpt lat="45.32206" lon="1.42265">
        <ele>308</ele>
        <time>2019-11-26T11:54:27Z</time>
      </trkpt>
      <trkpt lat="45.32185" lon="1.42263">
        <ele>309</ele>
        <time>2019-11-26T11:54:32Z</time>
      </trkpt>
      <trkpt lat="45.32163" lon="1.42261">
        <ele>309</ele>
        <time>2019-11-26T11:54:37Z</time>
      </trkpt>
      <trkpt lat="45.32145" lon="1.42258">
        <ele>307</ele>
        <time>2019-11-26T11:54:42Z</time>
      </trkpt>
      <trkpt lat="45.32122" lon="1.42248">
        <ele>304</ele>
        <time>2019-11-26T11:54:47Z</time>
      </trkpt>
      <trkpt lat="45.3211" lon="1.42231">
        <ele>299</ele>
        <time>2019-11-26T11:54:52Z</time>
      </trkpt>
      <trkpt lat="45.32096" lon="1.4222">
        <ele>296</ele>
        <time>2019-11-26T11:54:57Z</time>
      </trkpt>
      <trkpt lat="45.32086" lon="1.42209">
        <ele>293</ele>
        <time>2019-11-26T11:55:02Z</time>
      </trkpt>
      <trkpt lat="45.32068" lon="1.42192">
        <ele>289</ele>
        <time>2019-11-26T11:55:07Z</time>
      </trkpt>
      <trkpt lat="45.32043" lon="1.42188">
        <ele>288</ele>
        <time>2019-11-26T11:55:12Z</time>
      </trkpt>
      <trkpt lat="45.32028" lon="1.42177">
        <ele>287</ele>
        <time>2019-11-26T11:55:17Z</time>
      </trkpt>
      <trkpt lat="45.32013" lon="1.42162">
        <ele>284</ele>
        <time>2019-11-26T11:55:22Z</time>
      </trkpt>
      <trkpt lat="45.31997" lon="1.42145">
        <ele>280</ele>
        <time>2019-11-26T11:55:27Z</time>
      </trkpt>
      <trkpt lat="45.31976" lon="1.42121">
        <ele>273</ele>
        <time>2019-11-26T11:55:32Z</time>
      </trkpt>
      <trkpt lat="45.31966" lon="1.42095">
        <ele>266</ele>
        <time>2019-11-26T11:55:37Z</time>
      </trkpt>
      <trkpt lat="45.31947" lon="1.42085">
        <ele>262</ele>
        <time>2019-11-26T11:55:42Z</time>
      </trkpt>
      <trkpt lat="45.31924" lon="1.4208">
        <ele>261</ele>
        <time>2019-11-26T11:55:47Z</time>
      </trkpt>
      <trkpt lat="45.31902" lon="1.42082">
        <ele>259</ele>
        <time>2019-11-26T11:55:52Z</time>
      </trkpt>
      <trkpt lat="45.31884" lon="1.42089">
        <ele>258</ele>
        <time>2019-11-26T11:55:57Z</time>
      </trkpt>
      <trkpt lat="45.3187" lon="1.421">
        <ele>260</ele>
        <time>2019-11-26T11:56:02Z</time>
      </trkpt>
      <trkpt lat="45.3186" lon="1.42098">
        <ele>258</ele>
        <time>2019-11-26T11:56:07Z</time>
      </trkpt>
      <trkpt lat="45.31853" lon="1.42096">
        <ele>256</ele>
        <time>2019-11-26T11:56:12Z</time>
      </trkpt>
      <trkpt lat="45.31848" lon="1.42101">
        <ele>257</ele>
        <time>2019-11-26T11:56:17Z</time>
      </trkpt>
      <trkpt lat="45.31843" lon="1.42104">
        <ele>257</ele>
        <time>2019-11-26T11:56:22Z</time>
      </trkpt>
      <trkpt lat="45.31822" lon="1.42106">
        <ele>254</ele>
        <time>2019-11-26T11:56:27Z</time>
      </trkpt>
      <trkpt lat="45.31796" lon="1.42115">
        <ele>252</ele>
        <time>2019-11-26T11:56:32Z</time>
      </trkpt>
      <trkpt lat="45.31769" lon="1.42119">
        <ele>248</ele>
        <time>2019-11-26T11:56:37Z</time>
      </trkpt>
      <trkpt lat="45.31745" lon="1.4213">
        <ele>246</ele>
        <time>2019-11-26T11:56:42Z</time>
      </trkpt>
      <trkpt lat="45.31716" lon="1.42134">
        <ele>242</ele>
        <time>2019-11-26T11:56:47Z</time>
      </trkpt>
      <trkpt lat="45.3169" lon="1.42138">
        <ele>239</ele>
        <time>2019-11-26T11:56:52Z</time>
      </trkpt>
      <trkpt lat="45.31668" lon="1.42149">
        <ele>238</ele>
        <time>2019-11-26T11:56:57Z</time>
      </trkpt>
      <trkpt lat="45.31648" lon="1.42158">
        <ele>231</ele>
        <time>2019-11-26T11:57:02Z</time>
      </trkpt>
      <trkpt lat="45.31635" lon="1.42181">
        <ele>228</ele>
        <time>2019-11-26T11:57:07Z</time>
      </trkpt>
      <trkpt lat="45.31626" lon="1.42207">
        <ele>226</ele>
        <time>2019-11-26T11:57:12Z</time>
      </trkpt>
      <trkpt lat="45.31626" lon="1.42235">
        <ele>228</ele>
        <time>2019-11-26T11:57:17Z</time>
      </trkpt>
      <trkpt lat="45.31627" lon="1.42265">
        <ele>229</ele>
        <time>2019-11-26T11:57:22Z</time>
      </trkpt>
      <trkpt lat="45.31632" lon="1.42295">
        <ele>228</ele>
        <time>2019-11-26T11:57:27Z</time>
      </trkpt>
      <trkpt lat="45.31641" lon="1.42325">
        <ele>227</ele>
        <time>2019-11-26T11:57:32Z</time>
      </trkpt>
      <trkpt lat="45.3165" lon="1.42353">
        <ele>225</ele>
        <time>2019-11-26T11:57:37Z</time>
      </trkpt>
      <trkpt lat="45.31651" lon="1.42379">
        <ele>221</ele>
        <time>2019-11-26T11:57:42Z</time>
      </trkpt>
      <trkpt lat="45.31665" lon="1.42394">
        <ele>220</ele>
        <time>2019-11-26T11:57:47Z</time>
      </trkpt>
      <trkpt lat="45.31687" lon="1.42409">
        <ele>221</ele>
        <time>2019-11-26T11:57:52Z</time>
      </trkpt>
      <trkpt lat="45.31712" lon="1.4242">
        <ele>222</ele>
        <time>2019-11-26T11:57:57Z</time>
      </trkpt>
      <trkpt lat="45.31698" lon="1.42468">
        <ele>212</ele>
        <time>2019-11-26T11:58:02Z</time>
      </trkpt>
      <trkpt lat="45.31684" lon="1.42504">
        <ele>204</ele>
        <time>2019-11-26T11:58:07Z</time>
      </trkpt>
      <trkpt lat="45.3166" lon="1.42513">
        <ele>200</ele>
        <time>2019-11-26T11:58:12Z</time>
      </trkpt>
      <trkpt lat="45.31633" lon="1.42515">
        <ele>197</ele>
        <time>2019-11-26T11:58:17Z</time>
      </trkpt>
      <trkpt lat="45.31633" lon="1.42583">
        <ele>189</ele>
        <time>2019-11-26T11:58:22Z</time>
      </trkpt>
      <trkpt lat="45.31621" lon="1.42635">
        <ele>185</ele>
        <time>2019-11-26T11:58:27Z</time>
      </trkpt>
      <trkpt lat="45.31586" lon="1.42674">
        <ele>183</ele>
        <time>2019-11-26T11:58:32Z</time>
      </trkpt>
      <trkpt lat="45.31558" lon="1.42659">
        <ele>181</ele>
        <time>2019-11-26T11:58:37Z</time>
      </trkpt>
      <trkpt lat="45.3153" lon="1.42669">
        <ele>180</ele>
        <time>2019-11-26T11:58:42Z</time>
      </trkpt>
      <trkpt lat="45.31514" lon="1.4271">
        <ele>185</ele>
        <time>2019-11-26T11:58:47Z</time>
      </trkpt>
      <trkpt lat="45.31499" lon="1.4274">
        <ele>188</ele>
        <time>2019-11-26T11:58:52Z</time>
      </trkpt>
      <trkpt lat="45.31505" lon="1.42764">
        <ele>191</ele>
        <time>2019-11-26T11:58:57Z</time>
      </trkpt>
      <trkpt lat="45.31533" lon="1.42777">
        <ele>194</ele>
        <time>2019-11-26T11:59:02Z</time>
      </trkpt>
      <trkpt lat="45.31544" lon="1.42804">
        <ele>198</ele>
        <time>2019-11-26T11:59:07Z</time>
      </trkpt>
      <trkpt lat="45.31552" lon="1.42832">
        <ele>201</ele>
        <time>2019-11-26T11:59:12Z</time>
      </trkpt>
      <trkpt lat="45.31567" lon="1.42858">
        <ele>207</ele>
        <time>2019-11-26T11:59:17Z</time>
      </trkpt>
      <trkpt lat="45.31601" lon="1.42877">
        <ele>214</ele>
        <time>2019-11-26T11:59:22Z</time>
      </trkpt>
      <trkpt lat="45.3163" lon="1.42884">
        <ele>220</ele>
        <time>2019-11-26T11:59:27Z</time>
      </trkpt>
      <trkpt lat="45.31657" lon="1.42877">
        <ele>222</ele>
        <time>2019-11-26T11:59:32Z</time>
      </trkpt>
      <trkpt lat="45.3168" lon="1.42875">
        <ele>223</ele>
        <time>2019-11-26T11:59:37Z</time>
      </trkpt>
      <trkpt lat="45.31701" lon="1.42899">
        <ele>230</ele>
        <time>2019-11-26T11:59:42Z</time>
      </trkpt>
      <trkpt lat="45.31725" lon="1.42903">
        <ele>233</ele>
        <time>2019-11-26T11:59:47Z</time>
      </trkpt>
      <trkpt lat="45.31704" lon="1.42948">
        <ele>243</ele>
        <time>2019-11-26T11:59:52Z</time>
      </trkpt>
      <trkpt lat="45.3174" lon="1.42948">
        <ele>245</ele>
        <time>2019-11-26T11:59:57Z</time>
      </trkpt>
      <trkpt lat="45.31757" lon="1.42955">
        <ele>247</ele>
        <time>2019-11-26T12:00:02Z</time>
      </trkpt>
      <trkpt lat="45.31754" lon="1.42965">
        <ele>250</ele>
        <time>2019-11-26T12:00:07Z</time>
      </trkpt>
      <trkpt lat="45.31718" lon="1.42989">
        <ele>254</ele>
        <time>2019-11-26T12:00:12Z</time>
      </trkpt>
      <trkpt lat="45.3166" lon="1.43036">
        <ele>267</ele>
        <time>2019-11-26T12:00:17Z</time>
      </trkpt>
      <trkpt lat="45.31616" lon="1.43077">
        <ele>278</ele>
        <time>2019-11-26T12:00:22Z</time>
      </trkpt>
      <trkpt lat="45.31586" lon="1.43105">
        <ele>288</ele>
        <time>2019-11-26T12:00:27Z</time>
      </trkpt>
      <trkpt lat="45.31565" lon="1.43128">
        <ele>297</ele>
        <time>2019-11-26T12:00:32Z</time>
      </trkpt>
      <trkpt lat="45.31543" lon="1.4315">
        <ele>305</ele>
        <time>2019-11-26T12:00:37Z</time>
      </trkpt>
      <trkpt lat="45.31508" lon="1.4315">
        <ele>305</ele>
        <time>2019-11-26T12:00:42Z</time>
      </trkpt>
      <trkpt lat="45.31479" lon="1.43161">
        <ele>308</ele>
        <time>2019-11-26T12:00:47Z</time>
      </trkpt>
      <trkpt lat="45.31456" lon="1.43161">
        <ele>306</ele>
        <time>2019-11-26T12:00:52Z</time>
      </trkpt>
      <trkpt lat="45.31401" lon="1.43225">
        <ele>322</ele>
        <time>2019-11-26T12:00:57Z</time>
      </trkpt>
      <trkpt lat="45.31374" lon="1.43253">
        <ele>326</ele>
        <time>2019-11-26T12:01:02Z</time>
      </trkpt>
      <trkpt lat="45.31325" lon="1.4327">
        <ele>322</ele>
        <time>2019-11-26T12:01:07Z</time>
      </trkpt>
      <trkpt lat="45.31292" lon="1.43283">
        <ele>325</ele>
        <time>2019-11-26T12:01:12Z</time>
      </trkpt>
      <trkpt lat="45.31263" lon="1.43296">
        <ele>328</ele>
        <time>2019-11-26T12:01:17Z</time>
      </trkpt>
      <trkpt lat="45.31239" lon="1.43292">
        <ele>327</ele>
        <time>2019-11-26T12:01:22Z</time>
      </trkpt>
      <trkpt lat="45.31203" lon="1.43289">
        <ele>329</ele>
        <time>2019-11-26T12:01:27Z</time>
      </trkpt>
      <trkpt lat="45.31165" lon="1.43307">
        <ele>335</ele>
        <time>2019-11-26T12:01:32Z</time>
      </trkpt>
      <trkpt lat="45.312" lon="1.43319">
        <ele>336</ele>
        <time>2019-11-26T12:01:37Z</time>
      </trkpt>
      <trkpt lat="45.31209" lon="1.43324">
        <ele>337</ele>
        <time>2019-11-26T12:01:42Z</time>
      </trkpt>
      <trkpt lat="45.31209" lon="1.43345">
        <ele>341</ele>
        <time>2019-11-26T12:01:47Z</time>
      </trkpt>
      <trkpt lat="45.31167" lon="1.43354">
        <ele>342</ele>
        <time>2019-11-26T12:01:52Z</time>
      </trkpt>
      <trkpt lat="45.31094" lon="1.43405">
        <ele>348</ele>
        <time>2019-11-26T12:01:57Z</time>
      </trkpt>
      <trkpt lat="45.3107" lon="1.43425">
        <ele>350</ele>
        <time>2019-11-26T12:02:02Z</time>
      </trkpt>
      <trkpt lat="45.31061" lon="1.43444">
        <ele>351</ele>
        <time>2019-11-26T12:02:07Z</time>
      </trkpt>
      <trkpt lat="45.31054" lon="1.4345">
        <ele>352</ele>
        <time>2019-11-26T12:02:12Z</time>
      </trkpt>
      <trkpt lat="45.31035" lon="1.43425">
        <ele>351</ele>
        <time>2019-11-26T12:02:17Z</time>
      </trkpt>
      <trkpt lat="45.31016" lon="1.43403">
        <ele>350</ele>
        <time>2019-11-26T12:02:22Z</time>
      </trkpt>
      <trkpt lat="45.30986" lon="1.4339">
        <ele>351</ele>
        <time>2019-11-26T12:02:27Z</time>
      </trkpt>
      <trkpt lat="45.30957" lon="1.43395">
        <ele>351</ele>
        <time>2019-11-26T12:02:32Z</time>
      </trkpt>
      <trkpt lat="45.3094" lon="1.43384">
        <ele>352</ele>
        <time>2019-11-26T12:02:37Z</time>
      </trkpt>
      <trkpt lat="45.30933" lon="1.4339">
        <ele>352</ele>
        <time>2019-11-26T12:02:42Z</time>
      </trkpt>
      <trkpt lat="45.30919" lon="1.43369">
        <ele>352</ele>
        <time>2019-11-26T12:02:47Z</time>
      </trkpt>
      <trkpt lat="45.30913" lon="1.43354">
        <ele>353</ele>
        <time>2019-11-26T12:02:52Z</time>
      </trkpt>
      <trkpt lat="45.30889" lon="1.43365">
        <ele>354</ele>
        <time>2019-11-26T12:02:57Z</time>
      </trkpt>
      <trkpt lat="45.30857" lon="1.43382">
        <ele>356</ele>
        <time>2019-11-26T12:03:02Z</time>
      </trkpt>
      <trkpt lat="45.3082" lon="1.43384">
        <ele>356</ele>
        <time>2019-11-26T12:03:07Z</time>
      </trkpt>
      <trkpt lat="45.30823" lon="1.43435">
        <ele>356</ele>
        <time>2019-11-26T12:03:12Z</time>
      </trkpt>
      <trkpt lat="45.30847" lon="1.43502">
        <ele>357</ele>
        <time>2019-11-26T12:03:17Z</time>
      </trkpt>
      <trkpt lat="45.30877" lon="1.43562">
        <ele>358</ele>
        <time>2019-11-26T12:03:22Z</time>
      </trkpt>
      <trkpt lat="45.30857" lon="1.43624">
        <ele>357</ele>
        <time>2019-11-26T12:03:27Z</time>
      </trkpt>
      <trkpt lat="45.30832" lon="1.43676">
        <ele>354</ele>
        <time>2019-11-26T12:03:32Z</time>
      </trkpt>
      <trkpt lat="45.30823" lon="1.43695">
        <ele>353</ele>
        <time>2019-11-26T12:03:37Z</time>
      </trkpt>
      <trkpt lat="45.30829" lon="1.43736">
        <ele>355</ele>
        <time>2019-11-26T12:03:42Z</time>
      </trkpt>
      <trkpt lat="45.30827" lon="1.43785">
        <ele>357</ele>
        <time>2019-11-26T12:03:47Z</time>
      </trkpt>
      <trkpt lat="45.30817" lon="1.43847">
        <ele>358</ele>
        <time>2019-11-26T12:03:52Z</time>
      </trkpt>
      <trkpt lat="45.30799" lon="1.43897">
        <ele>357</ele>
        <time>2019-11-26T12:03:57Z</time>
      </trkpt>
      <trkpt lat="45.30783" lon="1.4394">
        <ele>356</ele>
        <time>2019-11-26T12:04:02Z</time>
      </trkpt>
      <trkpt lat="45.3078" lon="1.43967">
        <ele>355</ele>
        <time>2019-11-26T12:04:07Z</time>
      </trkpt>
      <trkpt lat="45.30768" lon="1.43974">
        <ele>356</ele>
        <time>2019-11-26T12:04:12Z</time>
      </trkpt>
      <trkpt lat="45.30747" lon="1.4395">
        <ele>357</ele>
        <time>2019-11-26T12:04:17Z</time>
      </trkpt>
      <trkpt lat="45.30725" lon="1.43895">
        <ele>358</ele>
        <time>2019-11-26T12:04:22Z</time>
      </trkpt>
      <trkpt lat="45.30708" lon="1.43867">
        <ele>357</ele>
        <time>2019-11-26T12:04:27Z</time>
      </trkpt>
      <trkpt lat="45.30696" lon="1.43864">
        <ele>358</ele>
        <time>2019-11-26T12:04:32Z</time>
      </trkpt>
      <trkpt lat="45.30693" lon="1.4389">
        <ele>360</ele>
        <time>2019-11-26T12:04:37Z</time>
      </trkpt>
      <trkpt lat="45.30667" lon="1.43957">
        <ele>367</ele>
        <time>2019-11-26T12:04:42Z</time>
      </trkpt>
      <trkpt lat="45.3066" lon="1.44028">
        <ele>370</ele>
        <time>2019-11-26T12:04:47Z</time>
      </trkpt>
      <trkpt lat="45.30604" lon="1.44128">
        <ele>375</ele>
        <time>2019-11-26T12:04:52Z</time>
      </trkpt>
      <trkpt lat="45.3058" lon="1.44173">
        <ele>378</ele>
        <time>2019-11-26T12:04:57Z</time>
      </trkpt>
      <trkpt lat="45.30566" lon="1.44197">
        <ele>378</ele>
        <time>2019-11-26T12:05:02Z</time>
      </trkpt>
      <trkpt lat="45.30528" lon="1.44169">
        <ele>378</ele>
        <time>2019-11-26T12:05:07Z</time>
      </trkpt>
      <trkpt lat="45.30497" lon="1.44154">
        <ele>378</ele>
        <time>2019-11-26T12:05:12Z</time>
      </trkpt>
      <trkpt lat="45.30488" lon="1.44139">
        <ele>378</ele>
        <time>2019-11-26T12:05:17Z</time>
      </trkpt>
      <trkpt lat="45.30461" lon="1.44154">
        <ele>380</ele>
        <time>2019-11-26T12:05:22Z</time>
      </trkpt>
      <trkpt lat="45.30388" lon="1.44231">
        <ele>385</ele>
        <time>2019-11-26T12:05:27Z</time>
      </trkpt>
      <trkpt lat="45.30438" lon="1.44324">
        <ele>385</ele>
        <time>2019-11-26T12:05:32Z</time>
      </trkpt>
      <trkpt lat="45.30462" lon="1.44375">
        <ele>385</ele>
        <time>2019-11-26T12:05:37Z</time>
      </trkpt>
      <trkpt lat="45.30497" lon="1.44425">
        <ele>386</ele>
        <time>2019-11-26T12:05:42Z</time>
      </trkpt>
      <trkpt lat="45.3053" lon="1.44465">
        <ele>386</ele>
        <time>2019-11-26T12:05:47Z</time>
      </trkpt>
      <trkpt lat="45.30636" lon="1.44613">
        <ele>383</ele>
        <time>2019-11-26T12:05:52Z</time>
      </trkpt>
      <trkpt lat="45.30719" lon="1.44734">
        <ele>387</ele>
        <time>2019-11-26T12:05:57Z</time>
      </trkpt>
      <trkpt lat="45.30743" lon="1.4477">
        <ele>388</ele>
        <time>2019-11-26T12:06:02Z</time>
      </trkpt>
      <trkpt lat="45.30741" lon="1.44813">
        <ele>388</ele>
        <time>2019-11-26T12:06:07Z</time>
      </trkpt>
      <trkpt lat="45.30737" lon="1.44852">
        <ele>388</ele>
        <time>2019-11-26T12:06:12Z</time>
      </trkpt>
      <trkpt lat="45.3074" lon="1.44871">
        <ele>388</ele>
        <time>2019-11-26T12:06:17Z</time>
      </trkpt>
      <trkpt lat="45.30613" lon="1.44875">
        <ele>386</ele>
        <time>2019-11-26T12:06:22Z</time>
      </trkpt>
      <trkpt lat="45.30601" lon="1.44924">
        <ele>385</ele>
        <time>2019-11-26T12:06:27Z</time>
      </trkpt>
      <trkpt lat="45.30598" lon="1.44965">
        <ele>383</ele>
        <time>2019-11-26T12:06:32Z</time>
      </trkpt>
      <trkpt lat="45.30602" lon="1.45004">
        <ele>381</ele>
        <time>2019-11-26T12:06:37Z</time>
      </trkpt>
      <trkpt lat="45.30574" lon="1.45034">
        <ele>380</ele>
        <time>2019-11-26T12:06:42Z</time>
      </trkpt>
      <trkpt lat="45.30569" lon="1.4509">
        <ele>376</ele>
        <time>2019-11-26T12:06:47Z</time>
      </trkpt>
      <trkpt lat="45.30557" lon="1.45137">
        <ele>375</ele>
        <time>2019-11-26T12:06:52Z</time>
      </trkpt>
      <trkpt lat="45.30547" lon="1.45173">
        <ele>374</ele>
        <time>2019-11-26T12:06:57Z</time>
      </trkpt>
      <trkpt lat="45.30571" lon="1.45186">
        <ele>374</ele>
        <time>2019-11-26T12:07:02Z</time>
      </trkpt>
      <trkpt lat="45.30602" lon="1.45206">
        <ele>375</ele>
        <time>2019-11-26T12:07:07Z</time>
      </trkpt>
      <trkpt lat="45.30624" lon="1.45298">
        <ele>373</ele>
        <time>2019-11-26T12:07:12Z</time>
      </trkpt>
      <trkpt lat="45.30642" lon="1.45371">
        <ele>365</ele>
        <time>2019-11-26T12:07:17Z</time>
      </trkpt>
      <trkpt lat="45.30657" lon="1.45422">
        <ele>360</ele>
        <time>2019-11-26T12:07:22Z</time>
      </trkpt>
      <trkpt lat="45.3067" lon="1.45442">
        <ele>359</ele>
        <time>2019-11-26T12:07:27Z</time>
      </trkpt>
      <trkpt lat="45.30684" lon="1.4545">
        <ele>358</ele>
        <time>2019-11-26T12:07:32Z</time>
      </trkpt>
      <trkpt lat="45.30705" lon="1.45435">
        <ele>360</ele>
        <time>2019-11-26T12:07:37Z</time>
      </trkpt>
      <trkpt lat="45.30717" lon="1.45424">
        <ele>360</ele>
        <time>2019-11-26T12:07:42Z</time>
      </trkpt>
      <trkpt lat="45.30722" lon="1.45457">
        <ele>360</ele>
        <time>2019-11-26T12:07:47Z</time>
      </trkpt>
      <trkpt lat="45.30713" lon="1.45504">
        <ele>358</ele>
        <time>2019-11-26T12:07:52Z</time>
      </trkpt>
      <trkpt lat="45.30699" lon="1.45549">
        <ele>356</ele>
        <time>2019-11-26T12:07:57Z</time>
      </trkpt>
      <trkpt lat="45.30682" lon="1.4559">
        <ele>353</ele>
        <time>2019-11-26T12:08:02Z</time>
      </trkpt>
      <trkpt lat="45.30667" lon="1.45611">
        <ele>350</ele>
        <time>2019-11-26T12:08:07Z</time>
      </trkpt>
      <trkpt lat="45.30663" lon="1.45645">
        <ele>349</ele>
        <time>2019-11-26T12:08:12Z</time>
      </trkpt>
      <trkpt lat="45.3067" lon="1.45716">
        <ele>346</ele>
        <time>2019-11-26T12:08:17Z</time>
      </trkpt>
      <trkpt lat="45.30672" lon="1.45746">
        <ele>343</ele>
        <time>2019-11-26T12:08:22Z</time>
      </trkpt>
      <trkpt lat="45.3066" lon="1.4577">
        <ele>345</ele>
        <time>2019-11-26T12:08:27Z</time>
      </trkpt>
      <trkpt lat="45.30586" lon="1.45744">
        <ele>350</ele>
        <time>2019-11-26T12:08:32Z</time>
      </trkpt>
      <trkpt lat="45.30556" lon="1.4574">
        <ele>353</ele>
        <time>2019-11-26T12:08:37Z</time>
      </trkpt>
      <trkpt lat="45.3053" lon="1.45746">
        <ele>357</ele>
        <time>2019-11-26T12:08:42Z</time>
      </trkpt>
      <trkpt lat="45.30507" lon="1.45757">
        <ele>359</ele>
        <time>2019-11-26T12:08:47Z</time>
      </trkpt>
      <trkpt lat="45.30491" lon="1.45774">
        <ele>361</ele>
        <time>2019-11-26T12:08:52Z</time>
      </trkpt>
      <trkpt lat="45.30376" lon="1.45815">
        <ele>370</ele>
        <time>2019-11-26T12:08:57Z</time>
      </trkpt>
      <trkpt lat="45.30323" lon="1.45824">
        <ele>375</ele>
        <time>2019-11-26T12:09:02Z</time>
      </trkpt>
      <trkpt lat="45.30269" lon="1.45871">
        <ele>377</ele>
        <time>2019-11-26T12:09:07Z</time>
      </trkpt>
      <trkpt lat="45.30254" lon="1.45873">
        <ele>378</ele>
        <time>2019-11-26T12:09:12Z</time>
      </trkpt>
      <trkpt lat="45.30213" lon="1.45924">
        <ele>377</ele>
        <time>2019-11-26T12:09:17Z</time>
      </trkpt>
      <trkpt lat="45.30184" lon="1.45954">
        <ele>374</ele>
        <time>2019-11-26T12:09:22Z</time>
      </trkpt>
      <trkpt lat="45.30156" lon="1.45987">
        <ele>372</ele>
        <time>2019-11-26T12:09:27Z</time>
      </trkpt>
      <trkpt lat="45.30128" lon="1.45991">
        <ele>371</ele>
        <time>2019-11-26T12:09:32Z</time>
      </trkpt>
      <trkpt lat="45.30094" lon="1.45972">
        <ele>370</ele>
        <time>2019-11-26T12:09:37Z</time>
      </trkpt>
      <trkpt lat="45.30056" lon="1.45969">
        <ele>370</ele>
        <time>2019-11-26T12:09:42Z</time>
      </trkpt>
      <trkpt lat="45.29959" lon="1.45995">
        <ele>374</ele>
        <time>2019-11-26T12:09:47Z</time>
      </trkpt>
      <trkpt lat="45.29931" lon="1.46015">
        <ele>376</ele>
        <time>2019-11-26T12:09:52Z</time>
      </trkpt>
      <trkpt lat="45.2986" lon="1.4606">
        <ele>377</ele>
        <time>2019-11-26T12:09:57Z</time>
      </trkpt>
      <trkpt lat="45.29816" lon="1.46051">
        <ele>379</ele>
        <time>2019-11-26T12:10:02Z</time>
      </trkpt>
      <trkpt lat="45.29759" lon="1.46017">
        <ele>378</ele>
        <time>2019-11-26T12:10:07Z</time>
      </trkpt>
      <trkpt lat="45.2971" lon="1.45995">
        <ele>382</ele>
        <time>2019-11-26T12:10:12Z</time>
      </trkpt>
      <trkpt lat="45.29688" lon="1.45995">
        <ele>383</ele>
        <time>2019-11-26T12:10:17Z</time>
      </trkpt>
      <trkpt lat="45.29686" lon="1.46062">
        <ele>376</ele>
        <time>2019-11-26T12:10:22Z</time>
      </trkpt>
      <trkpt lat="45.29701" lon="1.46128">
        <ele>370</ele>
        <time>2019-11-26T12:10:27Z</time>
      </trkpt>
      <trkpt lat="45.29719" lon="1.46163">
        <ele>369</ele>
        <time>2019-11-26T12:10:32Z</time>
      </trkpt>
      <trkpt lat="45.29729" lon="1.46203">
        <ele>368</ele>
        <time>2019-11-26T12:10:37Z</time>
      </trkpt>
      <trkpt lat="45.29716" lon="1.46221">
        <ele>366</ele>
        <time>2019-11-26T12:10:42Z</time>
      </trkpt>
      <trkpt lat="45.2965" lon="1.46236">
        <ele>365</ele>
        <time>2019-11-26T12:10:47Z</time>
      </trkpt>
      <trkpt lat="45.29601" lon="1.46257">
        <ele>366</ele>
        <time>2019-11-26T12:10:52Z</time>
      </trkpt>
      <trkpt lat="45.29569" lon="1.46262">
        <ele>367</ele>
        <time>2019-11-26T12:10:57Z</time>
      </trkpt>
      <trkpt lat="45.29557" lon="1.46288">
        <ele>366</ele>
        <time>2019-11-26T12:11:02Z</time>
      </trkpt>
      <trkpt lat="45.29535" lon="1.46356">
        <ele>364</ele>
        <time>2019-11-26T12:11:07Z</time>
      </trkpt>
      <trkpt lat="45.29528" lon="1.46384">
        <ele>362</ele>
        <time>2019-11-26T12:11:12Z</time>
      </trkpt>
      <trkpt lat="45.29489" lon="1.46403">
        <ele>364</ele>
        <time>2019-11-26T12:11:17Z</time>
      </trkpt>
      <trkpt lat="45.29436" lon="1.46422">
        <ele>363</ele>
        <time>2019-11-26T12:11:22Z</time>
      </trkpt>
      <trkpt lat="45.29398" lon="1.46418">
        <ele>362</ele>
        <time>2019-11-26T12:11:27Z</time>
      </trkpt>
      <trkpt lat="45.29433" lon="1.46484">
        <ele>358</ele>
        <time>2019-11-26T12:11:32Z</time>
      </trkpt>
      <trkpt lat="45.29362" lon="1.46508">
        <ele>346</ele>
        <time>2019-11-26T12:11:37Z</time>
      </trkpt>
      <trkpt lat="45.29265" lon="1.46506">
        <ele>339</ele>
        <time>2019-11-26T12:11:42Z</time>
      </trkpt>
      <trkpt lat="45.29226" lon="1.46499">
        <ele>341</ele>
        <time>2019-11-26T12:11:47Z</time>
      </trkpt>
      <trkpt lat="45.29197" lon="1.46502">
        <ele>342</ele>
        <time>2019-11-26T12:11:52Z</time>
      </trkpt>
      <trkpt lat="45.29152" lon="1.4651">
        <ele>339</ele>
        <time>2019-11-26T12:11:57Z</time>
      </trkpt>
      <trkpt lat="45.29113" lon="1.46512">
        <ele>336</ele>
        <time>2019-11-26T12:12:02Z</time>
      </trkpt>
      <trkpt lat="45.29073" lon="1.46495">
        <ele>338</ele>
        <time>2019-11-26T12:12:07Z</time>
      </trkpt>
      <trkpt lat="45.29008" lon="1.46457">
        <ele>338</ele>
        <time>2019-11-26T12:12:12Z</time>
      </trkpt>
      <trkpt lat="45.28972" lon="1.46412">
        <ele>341</ele>
        <time>2019-11-26T12:12:17Z</time>
      </trkpt>
      <trkpt lat="45.28956" lon="1.46377">
        <ele>341</ele>
        <time>2019-11-26T12:12:22Z</time>
      </trkpt>
      <trkpt lat="45.2895" lon="1.46309">
        <ele>342</ele>
        <time>2019-11-26T12:12:27Z</time>
      </trkpt>
      <trkpt lat="45.28968" lon="1.46263">
        <ele>343</ele>
        <time>2019-11-26T12:12:32Z</time>
      </trkpt>
      <trkpt lat="45.28993" lon="1.46229">
        <ele>347</ele>
        <time>2019-11-26T12:12:37Z</time>
      </trkpt>
      <trkpt lat="45.29024" lon="1.46178">
        <ele>347</ele>
        <time>2019-11-26T12:12:42Z</time>
      </trkpt>
      <trkpt lat="45.29028" lon="1.4615">
        <ele>346</ele>
        <time>2019-11-26T12:12:47Z</time>
      </trkpt>
      <trkpt lat="45.29031" lon="1.46124">
        <ele>347</ele>
        <time>2019-11-26T12:12:52Z</time>
      </trkpt>
      <trkpt lat="45.29008" lon="1.46124">
        <ele>346</ele>
        <time>2019-11-26T12:12:57Z</time>
      </trkpt>
      <trkpt lat="45.28963" lon="1.46109">
        <ele>342</ele>
        <time>2019-11-26T12:13:02Z</time>
      </trkpt>
      <trkpt lat="45.28919" lon="1.46094">
        <ele>339</ele>
        <time>2019-11-26T12:13:07Z</time>
      </trkpt>
      <trkpt lat="45.28888" lon="1.46081">
        <ele>338</ele>
        <time>2019-11-26T12:13:12Z</time>
      </trkpt>
      <trkpt lat="45.2887" lon="1.46072">
        <ele>336</ele>
        <time>2019-11-26T12:13:17Z</time>
      </trkpt>
      <trkpt lat="45.28841" lon="1.46053">
        <ele>333</ele>
        <time>2019-11-26T12:13:22Z</time>
      </trkpt>
      <trkpt lat="45.28806" lon="1.4603">
        <ele>329</ele>
        <time>2019-11-26T12:13:27Z</time>
      </trkpt>
      <trkpt lat="45.28759" lon="1.46006">
        <ele>323</ele>
        <time>2019-11-26T12:13:32Z</time>
      </trkpt>
      <trkpt lat="45.28737" lon="1.45995">
        <ele>320</ele>
        <time>2019-11-26T12:13:37Z</time>
      </trkpt>
      <trkpt lat="45.28684" lon="1.45978">
        <ele>311</ele>
        <time>2019-11-26T12:13:42Z</time>
      </trkpt>
      <trkpt lat="45.28645" lon="1.45935">
        <ele>308</ele>
        <time>2019-11-26T12:13:47Z</time>
      </trkpt>
      <trkpt lat="45.28624" lon="1.45914">
        <ele>306</ele>
        <time>2019-11-26T12:13:52Z</time>
      </trkpt>
      <trkpt lat="45.28604" lon="1.45886">
        <ele>304</ele>
        <time>2019-11-26T12:13:57Z</time>
      </trkpt>
      <trkpt lat="45.28599" lon="1.45845">
        <ele>305</ele>
        <time>2019-11-26T12:14:02Z</time>
      </trkpt>
      <trkpt lat="45.2861" lon="1.45783">
        <ele>301</ele>
        <time>2019-11-26T12:14:07Z</time>
      </trkpt>
      <trkpt lat="45.28627" lon="1.45753">
        <ele>299</ele>
        <time>2019-11-26T12:14:12Z</time>
      </trkpt>
      <trkpt lat="45.28646" lon="1.45742">
        <ele>300</ele>
        <time>2019-11-26T12:14:17Z</time>
      </trkpt>
      <trkpt lat="45.28622" lon="1.45721">
        <ele>296</ele>
        <time>2019-11-26T12:14:22Z</time>
      </trkpt>
      <trkpt lat="45.28587" lon="1.45721">
        <ele>292</ele>
        <time>2019-11-26T12:14:27Z</time>
      </trkpt>
      <trkpt lat="45.28568" lon="1.45723">
        <ele>290</ele>
        <time>2019-11-26T12:14:32Z</time>
      </trkpt>
      <trkpt lat="45.28537" lon="1.45706">
        <ele>284</ele>
        <time>2019-11-26T12:14:37Z</time>
      </trkpt>
      <trkpt lat="45.28497" lon="1.45684">
        <ele>276</ele>
        <time>2019-11-26T12:14:42Z</time>
      </trkpt>
      <trkpt lat="45.28468" lon="1.45678">
        <ele>270</ele>
        <time>2019-11-26T12:14:47Z</time>
      </trkpt>
      <trkpt lat="45.28436" lon="1.45691">
        <ele>266</ele>
        <time>2019-11-26T12:14:52Z</time>
      </trkpt>
      <trkpt lat="45.28397" lon="1.45695">
        <ele>258</ele>
        <time>2019-11-26T12:14:57Z</time>
      </trkpt>
      <trkpt lat="45.28362" lon="1.45684">
        <ele>250</ele>
        <time>2019-11-26T12:15:02Z</time>
      </trkpt>
      <trkpt lat="45.28344" lon="1.45697">
        <ele>246</ele>
        <time>2019-11-26T12:15:07Z</time>
      </trkpt>
      <trkpt lat="45.28335" lon="1.45697">
        <ele>244</ele>
        <time>2019-11-26T12:15:12Z</time>
      </trkpt>
      <trkpt lat="45.28296" lon="1.45656">
        <ele>236</ele>
        <time>2019-11-26T12:15:17Z</time>
      </trkpt>
      <trkpt lat="45.28214" lon="1.45611">
        <ele>219</ele>
        <time>2019-11-26T12:15:22Z</time>
      </trkpt>
      <trkpt lat="45.2818" lon="1.45581">
        <ele>217</ele>
        <time>2019-11-26T12:15:27Z</time>
      </trkpt>
      <trkpt lat="45.28134" lon="1.4557">
        <ele>210</ele>
        <time>2019-11-26T12:15:32Z</time>
      </trkpt>
      <trkpt lat="45.28059" lon="1.45562">
        <ele>198</ele>
        <time>2019-11-26T12:15:37Z</time>
      </trkpt>
      <trkpt lat="45.28014" lon="1.45557">
        <ele>187</ele>
        <time>2019-11-26T12:15:42Z</time>
      </trkpt>
      <trkpt lat="45.27997" lon="1.45536">
        <ele>183</ele>
        <time>2019-11-26T12:15:47Z</time>
      </trkpt>
      <trkpt lat="45.27995" lon="1.45508">
        <ele>182</ele>
        <time>2019-11-26T12:15:52Z</time>
      </trkpt>
      <trkpt lat="45.28" lon="1.45489">
        <ele>182</ele>
        <time>2019-11-26T12:15:57Z</time>
      </trkpt>
      <trkpt lat="45.28017" lon="1.4545">
        <ele>177</ele>
        <time>2019-11-26T12:16:02Z</time>
      </trkpt>
      <trkpt lat="45.28033" lon="1.45424">
        <ele>174</ele>
        <time>2019-11-26T12:16:07Z</time>
      </trkpt>
      <trkpt lat="45.28033" lon="1.45416">
        <ele>172</ele>
        <time>2019-11-26T12:16:12Z</time>
      </trkpt>
      <trkpt lat="45.28048" lon="1.45412">
        <ele>173</ele>
        <time>2019-11-26T12:16:17Z</time>
      </trkpt>
      <trkpt lat="45.28065" lon="1.45403">
        <ele>174</ele>
        <time>2019-11-26T12:16:22Z</time>
      </trkpt>
      <trkpt lat="45.28077" lon="1.45403">
        <ele>176</ele>
        <time>2019-11-26T12:16:27Z</time>
      </trkpt>
      <trkpt lat="45.28098" lon="1.4542">
        <ele>181</ele>
        <time>2019-11-26T12:16:32Z</time>
      </trkpt>
      <trkpt lat="45.28101" lon="1.45414">
        <ele>180</ele>
        <time>2019-11-26T12:16:37Z</time>
      </trkpt>
      <trkpt lat="45.28041" lon="1.45349">
        <ele>162</ele>
        <time>2019-11-26T12:16:42Z</time>
      </trkpt>
      <trkpt lat="45.28066" lon="1.45377">
        <ele>170</ele>
        <time>2019-11-26T12:16:47Z</time>
      </trkpt>
      <trkpt lat="45.27983" lon="1.45336">
        <ele>155</ele>
        <time>2019-11-26T12:16:52Z</time>
      </trkpt>
      <trkpt lat="45.27949" lon="1.45354">
        <ele>153</ele>
        <time>2019-11-26T12:16:57Z</time>
      </trkpt>
      <trkpt lat="45.27896" lon="1.45409">
        <ele>142</ele>
        <time>2019-11-26T12:17:02Z</time>
      </trkpt>
      <trkpt lat="45.27783" lon="1.45523">
        <ele>123</ele>
        <time>2019-11-26T12:17:07Z</time>
      </trkpt>
      <trkpt lat="45.27817" lon="1.45564">
        <ele>125</ele>
        <time>2019-11-26T12:17:12Z</time>
      </trkpt>
      <trkpt lat="45.27849" lon="1.45605">
        <ele>128</ele>
        <time>2019-11-26T12:17:17Z</time>
      </trkpt>
      <trkpt lat="45.27912" lon="1.45645">
        <ele>131</ele>
        <time>2019-11-26T12:17:22Z</time>
      </trkpt>
      <trkpt lat="45.27971" lon="1.4568">
        <ele>138</ele>
        <time>2019-11-26T12:17:27Z</time>
      </trkpt>
      <trkpt lat="45.28005" lon="1.45714">
        <ele>135</ele>
        <time>2019-11-26T12:17:32Z</time>
      </trkpt>
      <trkpt lat="45.2803" lon="1.45738">
        <ele>131</ele>
        <time>2019-11-26T12:17:37Z</time>
      </trkpt>
      <trkpt lat="45.28065" lon="1.45763">
        <ele>128</ele>
        <time>2019-11-26T12:17:42Z</time>
      </trkpt>
      <trkpt lat="45.28098" lon="1.45774">
        <ele>132</ele>
        <time>2019-11-26T12:17:47Z</time>
      </trkpt>
      <trkpt lat="45.2814" lon="1.45789">
        <ele>136</ele>
        <time>2019-11-26T12:17:52Z</time>
      </trkpt>
      <trkpt lat="45.28183" lon="1.45858">
        <ele>130</ele>
        <time>2019-11-26T12:17:57Z</time>
      </trkpt>
      <trkpt lat="45.28226" lon="1.45918">
        <ele>136</ele>
        <time>2019-11-26T12:18:02Z</time>
      </trkpt>
      <trkpt lat="45.28278" lon="1.46">
        <ele>139</ele>
        <time>2019-11-26T12:18:07Z</time>
      </trkpt>
      <trkpt lat="45.28317" lon="1.46083">
        <ele>140</ele>
        <time>2019-11-26T12:18:12Z</time>
      </trkpt>
      <trkpt lat="45.28344" lon="1.4613">
        <ele>141</ele>
        <time>2019-11-26T12:18:17Z</time>
      </trkpt>
      <trkpt lat="45.28368" lon="1.46165">
        <ele>145</ele>
        <time>2019-11-26T12:18:22Z</time>
      </trkpt>
      <trkpt lat="45.28396" lon="1.46188">
        <ele>150</ele>
        <time>2019-11-26T12:18:27Z</time>
      </trkpt>
      <trkpt lat="45.28427" lon="1.46236">
        <ele>148</ele>
        <time>2019-11-26T12:18:32Z</time>
      </trkpt>
      <trkpt lat="45.28445" lon="1.46287">
        <ele>146</ele>
        <time>2019-11-26T12:18:37Z</time>
      </trkpt>
      <trkpt lat="45.28482" lon="1.46351">
        <ele>145</ele>
        <time>2019-11-26T12:18:42Z</time>
      </trkpt>
      <trkpt lat="45.28521" lon="1.46416">
        <ele>140</ele>
        <time>2019-11-26T12:18:47Z</time>
      </trkpt>
      <trkpt lat="45.28491" lon="1.46459">
        <ele>131</ele>
        <time>2019-11-26T12:18:52Z</time>
      </trkpt>
      <trkpt lat="45.28474" lon="1.46465">
        <ele>131</ele>
        <time>2019-11-26T12:18:57Z</time>
      </trkpt>
      <trkpt lat="45.28457" lon="1.46474">
        <ele>131</ele>
        <time>2019-11-26T12:19:02Z</time>
      </trkpt>
      <trkpt lat="45.28445" lon="1.46497">
        <ele>131</ele>
        <time>2019-11-26T12:19:07Z</time>
      </trkpt>
      <trkpt lat="45.28445" lon="1.46517">
        <ele>133</ele>
        <time>2019-11-26T12:19:12Z</time>
      </trkpt>
      <trkpt lat="45.28456" lon="1.46555">
        <ele>137</ele>
        <time>2019-11-26T12:19:17Z</time>
      </trkpt>
      <trkpt lat="45.28468" lon="1.46575">
        <ele>138</ele>
        <time>2019-11-26T12:19:22Z</time>
      </trkpt>
      <trkpt lat="45.28477" lon="1.46607">
        <ele>141</ele>
        <time>2019-11-26T12:19:27Z</time>
      </trkpt>
      <trkpt lat="45.28483" lon="1.46628">
        <ele>143</ele>
        <time>2019-11-26T12:19:32Z</time>
      </trkpt>
      <trkpt lat="45.28482" lon="1.46658">
        <ele>147</ele>
        <time>2019-11-26T12:19:37Z</time>
      </trkpt>
      <trkpt lat="45.28423" lon="1.4657">
        <ele>143</ele>
        <time>2019-11-26T12:19:42Z</time>
      </trkpt>
      <trkpt lat="45.2839" lon="1.46523">
        <ele>140</ele>
        <time>2019-11-26T12:19:47Z</time>
      </trkpt>
      <trkpt lat="45.28374" lon="1.46499">
        <ele>137</ele>
        <time>2019-11-26T12:19:52Z</time>
      </trkpt>
      <trkpt lat="45.28288" lon="1.46459">
        <ele>145</ele>
        <time>2019-11-26T12:19:57Z</time>
      </trkpt>
      <trkpt lat="45.28258" lon="1.46442">
        <ele>146</ele>
        <time>2019-11-26T12:20:02Z</time>
      </trkpt>
      <trkpt lat="45.28214" lon="1.46414">
        <ele>148</ele>
        <time>2019-11-26T12:20:07Z</time>
      </trkpt>
      <trkpt lat="45.2819" lon="1.46386">
        <ele>147</ele>
        <time>2019-11-26T12:20:12Z</time>
      </trkpt>
      <trkpt lat="45.28171" lon="1.46345">
        <ele>141</ele>
        <time>2019-11-26T12:20:17Z</time>
      </trkpt>
      <trkpt lat="45.28133" lon="1.46287">
        <ele>136</ele>
        <time>2019-11-26T12:20:22Z</time>
      </trkpt>
      <trkpt lat="45.28094" lon="1.46259">
        <ele>134</ele>
        <time>2019-11-26T12:20:27Z</time>
      </trkpt>
      <trkpt lat="45.28041" lon="1.46259">
        <ele>137</ele>
        <time>2019-11-26T12:20:32Z</time>
      </trkpt>
      <trkpt lat="45.28003" lon="1.46253">
        <ele>137</ele>
        <time>2019-11-26T12:20:37Z</time>
      </trkpt>
      <trkpt lat="45.27955" lon="1.46242">
        <ele>137</ele>
        <time>2019-11-26T12:20:42Z</time>
      </trkpt>
      <trkpt lat="45.27915" lon="1.46227">
        <ele>135</ele>
        <time>2019-11-26T12:20:47Z</time>
      </trkpt>
      <trkpt lat="45.27899" lon="1.46227">
        <ele>136</ele>
        <time>2019-11-26T12:20:52Z</time>
      </trkpt>
      <trkpt lat="45.27884" lon="1.46227">
        <ele>137</ele>
        <time>2019-11-26T12:20:57Z</time>
      </trkpt>
      <trkpt lat="45.27855" lon="1.46201">
        <ele>136</ele>
        <time>2019-11-26T12:21:02Z</time>
      </trkpt>
      <trkpt lat="45.27847" lon="1.46216">
        <ele>139</ele>
        <time>2019-11-26T12:21:07Z</time>
      </trkpt>
      <trkpt lat="45.2782" lon="1.46261">
        <ele>144</ele>
        <time>2019-11-26T12:21:12Z</time>
      </trkpt>
      <trkpt lat="45.27813" lon="1.46291">
        <ele>145</ele>
        <time>2019-11-26T12:21:17Z</time>
      </trkpt>
      <trkpt lat="45.27811" lon="1.4633">
        <ele>147</ele>
        <time>2019-11-26T12:21:22Z</time>
      </trkpt>
      <trkpt lat="45.27786" lon="1.46364">
        <ele>150</ele>
        <time>2019-11-26T12:21:27Z</time>
      </trkpt>
      <trkpt lat="45.27772" lon="1.46377">
        <ele>152</ele>
        <time>2019-11-26T12:21:32Z</time>
      </trkpt>
      <trkpt lat="45.27739" lon="1.46388">
        <ele>153</ele>
        <time>2019-11-26T12:21:37Z</time>
      </trkpt>
      <trkpt lat="45.27715" lon="1.46392">
        <ele>154</ele>
        <time>2019-11-26T12:21:42Z</time>
      </trkpt>
      <trkpt lat="45.27681" lon="1.46407">
        <ele>157</ele>
        <time>2019-11-26T12:21:47Z</time>
      </trkpt>
      <trkpt lat="45.27647" lon="1.46407">
        <ele>157</ele>
        <time>2019-11-26T12:21:52Z</time>
      </trkpt>
      <trkpt lat="45.2763" lon="1.46427">
        <ele>160</ele>
        <time>2019-11-26T12:21:57Z</time>
      </trkpt>
      <trkpt lat="45.27627" lon="1.46461">
        <ele>164</ele>
        <time>2019-11-26T12:22:02Z</time>
      </trkpt>
      <trkpt lat="45.27645" lon="1.46476">
        <ele>167</ele>
        <time>2019-11-26T12:22:07Z</time>
      </trkpt>
      <trkpt lat="45.27719" lon="1.4648">
        <ele>173</ele>
        <time>2019-11-26T12:22:12Z</time>
      </trkpt>
      <trkpt lat="45.27761" lon="1.46478">
        <ele>174</ele>
        <time>2019-11-26T12:22:17Z</time>
      </trkpt>
      <trkpt lat="45.2781" lon="1.465">
        <ele>179</ele>
        <time>2019-11-26T12:22:22Z</time>
      </trkpt>
      <trkpt lat="45.27841" lon="1.4653">
        <ele>188</ele>
        <time>2019-11-26T12:22:27Z</time>
      </trkpt>
      <trkpt lat="45.27857" lon="1.46551">
        <ele>194</ele>
        <time>2019-11-26T12:22:32Z</time>
      </trkpt>
      <trkpt lat="45.27872" lon="1.4656">
        <ele>196</ele>
        <time>2019-11-26T12:22:37Z</time>
      </trkpt>
      <trkpt lat="45.27879" lon="1.46525">
        <ele>188</ele>
        <time>2019-11-26T12:22:42Z</time>
      </trkpt>
      <trkpt lat="45.2789" lon="1.46504">
        <ele>184</ele>
        <time>2019-11-26T12:22:47Z</time>
      </trkpt>
      <trkpt lat="45.27931" lon="1.46502">
        <ele>186</ele>
        <time>2019-11-26T12:22:52Z</time>
      </trkpt>
      <trkpt lat="45.27983" lon="1.46506">
        <ele>188</ele>
        <time>2019-11-26T12:22:57Z</time>
      </trkpt>
      <trkpt lat="45.28029" lon="1.46521">
        <ele>190</ele>
        <time>2019-11-26T12:23:02Z</time>
      </trkpt>
      <trkpt lat="45.28069" lon="1.46525">
        <ele>189</ele>
        <time>2019-11-26T12:23:07Z</time>
      </trkpt>
      <trkpt lat="45.28097" lon="1.46521">
        <ele>185</ele>
        <time>2019-11-26T12:23:12Z</time>
      </trkpt>
      <trkpt lat="45.28137" lon="1.46523">
        <ele>184</ele>
        <time>2019-11-26T12:23:17Z</time>
      </trkpt>
      <trkpt lat="45.28165" lon="1.4656">
        <ele>195</ele>
        <time>2019-11-26T12:23:22Z</time>
      </trkpt>
      <trkpt lat="45.28183" lon="1.46594">
        <ele>202</ele>
        <time>2019-11-26T12:23:27Z</time>
      </trkpt>
      <trkpt lat="45.28207" lon="1.46613">
        <ele>203</ele>
        <time>2019-11-26T12:23:32Z</time>
      </trkpt>
      <trkpt lat="45.28231" lon="1.46637">
        <ele>206</ele>
        <time>2019-11-26T12:23:37Z</time>
      </trkpt>
      <trkpt lat="45.28177" lon="1.46637">
        <ele>215</ele>
        <time>2019-11-26T12:23:42Z</time>
      </trkpt>
      <trkpt lat="45.28148" lon="1.46635">
        <ele>218</ele>
        <time>2019-11-26T12:23:47Z</time>
      </trkpt>
      <trkpt lat="45.28106" lon="1.4665">
        <ele>225</ele>
        <time>2019-11-26T12:23:52Z</time>
      </trkpt>
      <trkpt lat="45.28083" lon="1.46654">
        <ele>228</ele>
        <time>2019-11-26T12:23:57Z</time>
      </trkpt>
      <trkpt lat="45.28088" lon="1.46684">
        <ele>235</ele>
        <time>2019-11-26T12:24:02Z</time>
      </trkpt>
      <trkpt lat="45.28119" lon="1.46706">
        <ele>238</ele>
        <time>2019-11-26T12:24:07Z</time>
      </trkpt>
      <trkpt lat="45.28156" lon="1.46721">
        <ele>241</ele>
        <time>2019-11-26T12:24:12Z</time>
      </trkpt>
      <trkpt lat="45.2819" lon="1.46748">
        <ele>246</ele>
        <time>2019-11-26T12:24:17Z</time>
      </trkpt>
      <trkpt lat="45.28201" lon="1.46761">
        <ele>249</ele>
        <time>2019-11-26T12:24:22Z</time>
      </trkpt>
      <trkpt lat="45.28159" lon="1.46766">
        <ele>254</ele>
        <time>2019-11-26T12:24:27Z</time>
      </trkpt>
      <trkpt lat="45.28116" lon="1.46776">
        <ele>257</ele>
        <time>2019-11-26T12:24:32Z</time>
      </trkpt>
      <trkpt lat="45.28085" lon="1.46804">
        <ele>263</ele>
        <time>2019-11-26T12:24:37Z</time>
      </trkpt>
      <trkpt lat="45.28066" lon="1.46851">
        <ele>269</ele>
        <time>2019-11-26T12:24:42Z</time>
      </trkpt>
      <trkpt lat="45.28074" lon="1.46892">
        <ele>275</ele>
        <time>2019-11-26T12:24:47Z</time>
      </trkpt>
      <trkpt lat="45.28092" lon="1.46944">
        <ele>284</ele>
        <time>2019-11-26T12:24:52Z</time>
      </trkpt>
      <trkpt lat="45.28127" lon="1.46931">
        <ele>287</ele>
        <time>2019-11-26T12:24:57Z</time>
      </trkpt>
      <trkpt lat="45.28166" lon="1.46922">
        <ele>292</ele>
        <time>2019-11-26T12:25:02Z</time>
      </trkpt>
      <trkpt lat="45.28193" lon="1.46942">
        <ele>297</ele>
        <time>2019-11-26T12:25:07Z</time>
      </trkpt>
      <trkpt lat="45.28184" lon="1.46976">
        <ele>302</ele>
        <time>2019-11-26T12:25:12Z</time>
      </trkpt>
      <trkpt lat="45.28181" lon="1.47023">
        <ele>308</ele>
        <time>2019-11-26T12:25:17Z</time>
      </trkpt>
      <trkpt lat="45.28205" lon="1.47034">
        <ele>314</ele>
        <time>2019-11-26T12:25:22Z</time>
      </trkpt>
      <trkpt lat="45.2821" lon="1.47083">
        <ele>321</ele>
        <time>2019-11-26T12:25:27Z</time>
      </trkpt>
      <trkpt lat="45.28207" lon="1.47137">
        <ele>327</ele>
        <time>2019-11-26T12:25:32Z</time>
      </trkpt>
      <trkpt lat="45.28172" lon="1.47216">
        <ele>333</ele>
        <time>2019-11-26T12:25:37Z</time>
      </trkpt>
      <trkpt lat="45.28149" lon="1.47302">
        <ele>345</ele>
        <time>2019-11-26T12:25:42Z</time>
      </trkpt>
      <trkpt lat="45.28145" lon="1.47341">
        <ele>351</ele>
        <time>2019-11-26T12:25:47Z</time>
      </trkpt>
      <trkpt lat="45.2811" lon="1.47347">
        <ele>347</ele>
        <time>2019-11-26T12:25:52Z</time>
      </trkpt>
      <trkpt lat="45.2806" lon="1.47411">
        <ele>346</ele>
        <time>2019-11-26T12:25:57Z</time>
      </trkpt>
      <trkpt lat="45.28032" lon="1.47433">
        <ele>345</ele>
        <time>2019-11-26T12:26:02Z</time>
      </trkpt>
      <trkpt lat="45.28063" lon="1.47444">
        <ele>349</ele>
        <time>2019-11-26T12:26:07Z</time>
      </trkpt>
      <trkpt lat="45.28097" lon="1.47463">
        <ele>355</ele>
        <time>2019-11-26T12:26:12Z</time>
      </trkpt>
      <trkpt lat="45.28115" lon="1.47536">
        <ele>362</ele>
        <time>2019-11-26T12:26:17Z</time>
      </trkpt>
      <trkpt lat="45.28118" lon="1.47626">
        <ele>367</ele>
        <time>2019-11-26T12:26:22Z</time>
      </trkpt>
      <trkpt lat="45.28131" lon="1.47723">
        <ele>370</ele>
        <time>2019-11-26T12:26:27Z</time>
      </trkpt>
      <trkpt lat="45.28151" lon="1.47811">
        <ele>374</ele>
        <time>2019-11-26T12:26:32Z</time>
      </trkpt>
      <trkpt lat="45.28174" lon="1.47871">
        <ele>379</ele>
        <time>2019-11-26T12:26:37Z</time>
      </trkpt>
      <trkpt lat="45.28222" lon="1.47892">
        <ele>382</ele>
        <time>2019-11-26T12:26:42Z</time>
      </trkpt>
      <trkpt lat="45.28243" lon="1.47965">
        <ele>382</ele>
        <time>2019-11-26T12:26:47Z</time>
      </trkpt>
      <trkpt lat="45.2826" lon="1.48044">
        <ele>383</ele>
        <time>2019-11-26T12:26:52Z</time>
      </trkpt>
      <trkpt lat="45.28233" lon="1.48143">
        <ele>384</ele>
        <time>2019-11-26T12:26:57Z</time>
      </trkpt>
      <trkpt lat="45.28183" lon="1.48255">
        <ele>389</ele>
        <time>2019-11-26T12:27:02Z</time>
      </trkpt>
      <trkpt lat="45.2811" lon="1.4839">
        <ele>391</ele>
        <time>2019-11-26T12:27:07Z</time>
      </trkpt>
      <trkpt lat="45.28041" lon="1.48572">
        <ele>386</ele>
        <time>2019-11-26T12:27:12Z</time>
      </trkpt>
      <trkpt lat="45.27985" lon="1.48688">
        <ele>383</ele>
        <time>2019-11-26T12:27:17Z</time>
      </trkpt>
      <trkpt lat="45.27931" lon="1.48667">
        <ele>381</ele>
        <time>2019-11-26T12:27:22Z</time>
      </trkpt>
      <trkpt lat="45.27902" lon="1.48609">
        <ele>379</ele>
        <time>2019-11-26T12:27:27Z</time>
      </trkpt>
      <trkpt lat="45.2787" lon="1.48572">
        <ele>377</ele>
        <time>2019-11-26T12:27:32Z</time>
      </trkpt>
      <trkpt lat="45.27795" lon="1.48521">
        <ele>375</ele>
        <time>2019-11-26T12:27:37Z</time>
      </trkpt>
      <trkpt lat="45.27761" lon="1.48493">
        <ele>375</ele>
        <time>2019-11-26T12:27:42Z</time>
      </trkpt>
      <trkpt lat="45.27737" lon="1.48471">
        <ele>374</ele>
        <time>2019-11-26T12:27:47Z</time>
      </trkpt>
      <trkpt lat="45.27724" lon="1.48386">
        <ele>379</ele>
        <time>2019-11-26T12:27:52Z</time>
      </trkpt>
      <trkpt lat="45.27707" lon="1.48257">
        <ele>383</ele>
        <time>2019-11-26T12:27:57Z</time>
      </trkpt>
      <trkpt lat="45.27663" lon="1.48283">
        <ele>379</ele>
        <time>2019-11-26T12:28:02Z</time>
      </trkpt>
      <trkpt lat="45.27603" lon="1.48283">
        <ele>377</ele>
        <time>2019-11-26T12:28:07Z</time>
      </trkpt>
      <trkpt lat="45.27561" lon="1.4827">
        <ele>374</ele>
        <time>2019-11-26T12:28:12Z</time>
      </trkpt>
      <trkpt lat="45.2753" lon="1.48246">
        <ele>372</ele>
        <time>2019-11-26T12:28:17Z</time>
      </trkpt>
      <trkpt lat="45.27533" lon="1.48229">
        <ele>370</ele>
        <time>2019-11-26T12:28:22Z</time>
      </trkpt>
      <trkpt lat="45.27549" lon="1.48208">
        <ele>370</ele>
        <time>2019-11-26T12:28:27Z</time>
      </trkpt>
      <trkpt lat="45.27552" lon="1.48188">
        <ele>368</ele>
        <time>2019-11-26T12:28:32Z</time>
      </trkpt>
      <trkpt lat="45.27544" lon="1.48156">
        <ele>366</ele>
        <time>2019-11-26T12:28:37Z</time>
      </trkpt>
      <trkpt lat="45.27509" lon="1.48111">
        <ele>361</ele>
        <time>2019-11-26T12:28:42Z</time>
      </trkpt>
      <trkpt lat="45.27493" lon="1.48042">
        <ele>356</ele>
        <time>2019-11-26T12:28:47Z</time>
      </trkpt>
      <trkpt lat="45.27484" lon="1.47944">
        <ele>349</ele>
        <time>2019-11-26T12:28:52Z</time>
      </trkpt>
      <trkpt lat="45.27494" lon="1.47841">
        <ele>343</ele>
        <time>2019-11-26T12:28:57Z</time>
      </trkpt>
      <trkpt lat="45.27506" lon="1.4777">
        <ele>340</ele>
        <time>2019-11-26T12:29:02Z</time>
      </trkpt>
      <trkpt lat="45.27506" lon="1.47716">
        <ele>337</ele>
        <time>2019-11-26T12:29:07Z</time>
      </trkpt>
      <trkpt lat="45.27497" lon="1.47684">
        <ele>335</ele>
        <time>2019-11-26T12:29:12Z</time>
      </trkpt>
      <trkpt lat="45.27475" lon="1.47663">
        <ele>331</ele>
        <time>2019-11-26T12:29:17Z</time>
      </trkpt>
      <trkpt lat="45.27432" lon="1.47658">
        <ele>323</ele>
        <time>2019-11-26T12:29:22Z</time>
      </trkpt>
      <trkpt lat="45.27417" lon="1.47652">
        <ele>320</ele>
        <time>2019-11-26T12:29:27Z</time>
      </trkpt>
      <trkpt lat="45.27419" lon="1.47587">
        <ele>321</ele>
        <time>2019-11-26T12:29:32Z</time>
      </trkpt>
      <trkpt lat="45.27444" lon="1.47536">
        <ele>324</ele>
        <time>2019-11-26T12:29:37Z</time>
      </trkpt>
      <trkpt lat="45.27487" lon="1.47461">
        <ele>328</ele>
        <time>2019-11-26T12:29:42Z</time>
      </trkpt>
      <trkpt lat="45.27518" lon="1.47405">
        <ele>328</ele>
        <time>2019-11-26T12:29:47Z</time>
      </trkpt>
      <trkpt lat="45.27544" lon="1.47326">
        <ele>323</ele>
        <time>2019-11-26T12:29:52Z</time>
      </trkpt>
      <trkpt lat="45.27479" lon="1.47396">
        <ele>322</ele>
        <time>2019-11-26T12:29:57Z</time>
      </trkpt>
      <trkpt lat="45.27395" lon="1.47487">
        <ele>314</ele>
        <time>2019-11-26T12:30:02Z</time>
      </trkpt>
      <trkpt lat="45.27373" lon="1.47523">
        <ele>313</ele>
        <time>2019-11-26T12:30:07Z</time>
      </trkpt>
      <trkpt lat="45.27358" lon="1.47602">
        <ele>311</ele>
        <time>2019-11-26T12:30:12Z</time>
      </trkpt>
      <trkpt lat="45.27331" lon="1.47581">
        <ele>308</ele>
        <time>2019-11-26T12:30:17Z</time>
      </trkpt>
      <trkpt lat="45.27305" lon="1.47564">
        <ele>306</ele>
        <time>2019-11-26T12:30:22Z</time>
      </trkpt>
      <trkpt lat="45.27265" lon="1.47557">
        <ele>303</ele>
        <time>2019-11-26T12:30:27Z</time>
      </trkpt>
      <trkpt lat="45.27236" lon="1.47553">
        <ele>300</ele>
        <time>2019-11-26T12:30:32Z</time>
      </trkpt>
      <trkpt lat="45.27203" lon="1.47557">
        <ele>296</ele>
        <time>2019-11-26T12:30:37Z</time>
      </trkpt>
      <trkpt lat="45.27174" lon="1.47568">
        <ele>291</ele>
        <time>2019-11-26T12:30:42Z</time>
      </trkpt>
      <trkpt lat="45.27138" lon="1.47572">
        <ele>286</ele>
        <time>2019-11-26T12:30:47Z</time>
      </trkpt>
      <trkpt lat="45.27112" lon="1.47575">
        <ele>283</ele>
        <time>2019-11-26T12:30:52Z</time>
      </trkpt>
      <trkpt lat="45.27074" lon="1.47575">
        <ele>277</ele>
        <time>2019-11-26T12:30:57Z</time>
      </trkpt>
      <trkpt lat="45.27052" lon="1.47572">
        <ele>273</ele>
        <time>2019-11-26T12:31:02Z</time>
      </trkpt>
      <trkpt lat="45.27032" lon="1.47551">
        <ele>271</ele>
        <time>2019-11-26T12:31:07Z</time>
      </trkpt>
      <trkpt lat="45.27006" lon="1.47544">
        <ele>267</ele>
        <time>2019-11-26T12:31:12Z</time>
      </trkpt>
      <trkpt lat="45.26987" lon="1.47534">
        <ele>263</ele>
        <time>2019-11-26T12:31:17Z</time>
      </trkpt>
      <trkpt lat="45.26972" lon="1.47512">
        <ele>261</ele>
        <time>2019-11-26T12:31:22Z</time>
      </trkpt>
      <trkpt lat="45.26952" lon="1.47461">
        <ele>254</ele>
        <time>2019-11-26T12:31:27Z</time>
      </trkpt>
      <trkpt lat="45.26931" lon="1.47405">
        <ele>247</ele>
        <time>2019-11-26T12:31:32Z</time>
      </trkpt>
      <trkpt lat="45.26914" lon="1.47377">
        <ele>242</ele>
        <time>2019-11-26T12:31:37Z</time>
      </trkpt>
      <trkpt lat="45.26904" lon="1.47338">
        <ele>239</ele>
        <time>2019-11-26T12:31:42Z</time>
      </trkpt>
      <trkpt lat="45.26898" lon="1.47323">
        <ele>236</ele>
        <time>2019-11-26T12:31:47Z</time>
      </trkpt>
      <trkpt lat="45.2689" lon="1.47311">
        <ele>234</ele>
        <time>2019-11-26T12:31:52Z</time>
      </trkpt>
      <trkpt lat="45.26902" lon="1.47246">
        <ele>229</ele>
        <time>2019-11-26T12:31:57Z</time>
      </trkpt>
      <trkpt lat="45.26914" lon="1.47199">
        <ele>224</ele>
        <time>2019-11-26T12:32:02Z</time>
      </trkpt>
      <trkpt lat="45.26907" lon="1.47152">
        <ele>216</ele>
        <time>2019-11-26T12:32:07Z</time>
      </trkpt>
      <trkpt lat="45.26916" lon="1.47122">
        <ele>213</ele>
        <time>2019-11-26T12:32:12Z</time>
      </trkpt>
      <trkpt lat="45.26929" lon="1.4709">
        <ele>212</ele>
        <time>2019-11-26T12:32:17Z</time>
      </trkpt>
      <trkpt lat="45.26943" lon="1.47066">
        <ele>211</ele>
        <time>2019-11-26T12:32:22Z</time>
      </trkpt>
      <trkpt lat="45.26952" lon="1.47042">
        <ele>209</ele>
        <time>2019-11-26T12:32:27Z</time>
      </trkpt>
      <trkpt lat="45.26955" lon="1.47006">
        <ele>206</ele>
        <time>2019-11-26T12:32:32Z</time>
      </trkpt>
      <trkpt lat="45.26976" lon="1.46965">
        <ele>203</ele>
        <time>2019-11-26T12:32:37Z</time>
      </trkpt>
      <trkpt lat="45.26988" lon="1.46918">
        <ele>198</ele>
        <time>2019-11-26T12:32:42Z</time>
      </trkpt>
      <trkpt lat="45.26991" lon="1.46892">
        <ele>194</ele>
        <time>2019-11-26T12:32:47Z</time>
      </trkpt>
      <trkpt lat="45.26994" lon="1.46851">
        <ele>188</ele>
        <time>2019-11-26T12:32:52Z</time>
      </trkpt>
      <trkpt lat="45.26973" lon="1.46813">
        <ele>182</ele>
        <time>2019-11-26T12:32:57Z</time>
      </trkpt>
      <trkpt lat="45.26937" lon="1.46778">
        <ele>174</ele>
        <time>2019-11-26T12:33:02Z</time>
      </trkpt>
      <trkpt lat="45.2691" lon="1.46776">
        <ele>172</ele>
        <time>2019-11-26T12:33:07Z</time>
      </trkpt>
      <trkpt lat="45.26878" lon="1.46778">
        <ele>168</ele>
        <time>2019-11-26T12:33:12Z</time>
      </trkpt>
      <trkpt lat="45.26851" lon="1.46793">
        <ele>166</ele>
        <time>2019-11-26T12:33:17Z</time>
      </trkpt>
      <trkpt lat="45.26855" lon="1.46755">
        <ele>163</ele>
        <time>2019-11-26T12:33:22Z</time>
      </trkpt>
      <trkpt lat="45.26809" lon="1.46667">
        <ele>149</ele>
        <time>2019-11-26T12:33:27Z</time>
      </trkpt>
      <trkpt lat="45.26803" lon="1.4662">
        <ele>145</ele>
        <time>2019-11-26T12:33:32Z</time>
      </trkpt>
      <trkpt lat="45.26789" lon="1.46611">
        <ele>144</ele>
        <time>2019-11-26T12:33:37Z</time>
      </trkpt>
      <trkpt lat="45.26771" lon="1.46587">
        <ele>142</ele>
        <time>2019-11-26T12:33:42Z</time>
      </trkpt>
      <trkpt lat="45.2676" lon="1.46568">
        <ele>141</ele>
        <time>2019-11-26T12:33:47Z</time>
      </trkpt>
      <trkpt lat="45.26723" lon="1.46446">
        <ele>132</ele>
        <time>2019-11-26T12:33:52Z</time>
      </trkpt>
      <trkpt lat="45.26739" lon="1.46412">
        <ele>130</ele>
        <time>2019-11-26T12:33:57Z</time>
      </trkpt>
      <trkpt lat="45.26798" lon="1.46388">
        <ele>126</ele>
        <time>2019-11-26T12:34:02Z</time>
      </trkpt>
      <trkpt lat="45.26866" lon="1.46418">
        <ele>127</ele>
        <time>2019-11-26T12:34:07Z</time>
      </trkpt>
      <trkpt lat="45.26905" lon="1.46437">
        <ele>128</ele>
        <time>2019-11-26T12:34:12Z</time>
      </trkpt>
      <trkpt lat="45.26945" lon="1.46418">
        <ele>127</ele>
        <time>2019-11-26T12:34:17Z</time>
      </trkpt>
      <trkpt lat="45.27023" lon="1.46388">
        <ele>129</ele>
        <time>2019-11-26T12:34:22Z</time>
      </trkpt>
      <trkpt lat="45.27109" lon="1.46339">
        <ele>127</ele>
        <time>2019-11-26T12:34:27Z</time>
      </trkpt>
      <trkpt lat="45.27188" lon="1.46291">
        <ele>128</ele>
        <time>2019-11-26T12:34:32Z</time>
      </trkpt>
      <trkpt lat="45.27247" lon="1.46259">
        <ele>129</ele>
        <time>2019-11-26T12:34:37Z</time>
      </trkpt>
      <trkpt lat="45.2728" lon="1.46214">
        <ele>127</ele>
        <time>2019-11-26T12:34:42Z</time>
      </trkpt>
      <trkpt lat="45.27299" lon="1.46203">
        <ele>127</ele>
        <time>2019-11-26T12:34:47Z</time>
      </trkpt>
      <trkpt lat="45.27325" lon="1.4616">
        <ele>124</ele>
        <time>2019-11-26T12:34:52Z</time>
      </trkpt>
      <trkpt lat="45.27354" lon="1.46111">
        <ele>123</ele>
        <time>2019-11-26T12:34:57Z</time>
      </trkpt>
      <trkpt lat="45.27428" lon="1.46015">
        <ele>121</ele>
        <time>2019-11-26T12:35:02Z</time>
      </trkpt>
      <trkpt lat="45.27464" lon="1.4598">
        <ele>119</ele>
        <time>2019-11-26T12:35:07Z</time>
      </trkpt>
      <trkpt lat="45.2752" lon="1.45939">
        <ele>118</ele>
        <time>2019-11-26T12:35:12Z</time>
      </trkpt>
      <trkpt lat="45.27564" lon="1.45909">
        <ele>118</ele>
        <time>2019-11-26T12:35:17Z</time>
      </trkpt>
      <trkpt lat="45.27577" lon="1.45875">
        <ele>118</ele>
        <time>2019-11-26T12:35:22Z</time>
      </trkpt>
      <trkpt lat="45.27595" lon="1.45763">
        <ele>116</ele>
        <time>2019-11-26T12:35:27Z</time>
      </trkpt>
      <trkpt lat="45.2761" lon="1.45701">
        <ele>116</ele>
        <time>2019-11-26T12:35:32Z</time>
      </trkpt>
      <trkpt lat="45.27629" lon="1.45676">
        <ele>117</ele>
        <time>2019-11-26T12:35:37Z</time>
      </trkpt>
      <trkpt lat="45.2765" lon="1.45645">
        <ele>117</ele>
        <time>2019-11-26T12:35:42Z</time>
      </trkpt>
      <trkpt lat="45.2769" lon="1.456">
        <ele>118</ele>
        <time>2019-11-26T12:35:47Z</time>
      </trkpt>
      <trkpt lat="45.27666" lon="1.4554">
        <ele>119</ele>
        <time>2019-11-26T12:35:52Z</time>
      </trkpt>
      <trkpt lat="45.27612" lon="1.45465">
        <ele>120</ele>
        <time>2019-11-26T12:35:57Z</time>
      </trkpt>
      <trkpt lat="45.27588" lon="1.45433">
        <ele>122</ele>
        <time>2019-11-26T12:36:02Z</time>
      </trkpt>
      <trkpt lat="45.27549" lon="1.45446">
        <ele>123</ele>
        <time>2019-11-26T12:36:07Z</time>
      </trkpt>
      <trkpt lat="45.27512" lon="1.45431">
        <ele>125</ele>
        <time>2019-11-26T12:36:12Z</time>
      </trkpt>
      <trkpt lat="45.27476" lon="1.45424">
        <ele>125</ele>
        <time>2019-11-26T12:36:17Z</time>
      </trkpt>
      <trkpt lat="45.27465" lon="1.45446">
        <ele>124</ele>
        <time>2019-11-26T12:36:22Z</time>
      </trkpt>
      <trkpt lat="45.27431" lon="1.45482">
        <ele>122</ele>
        <time>2019-11-26T12:36:27Z</time>
      </trkpt>
      <trkpt lat="45.27405" lon="1.45485">
        <ele>122</ele>
        <time>2019-11-26T12:36:32Z</time>
      </trkpt>
      <trkpt lat="45.27366" lon="1.4548">
        <ele>120</ele>
        <time>2019-11-26T12:36:37Z</time>
      </trkpt>
      <trkpt lat="45.27351" lon="1.45478">
        <ele>119</ele>
        <time>2019-11-26T12:36:42Z</time>
      </trkpt>
      <trkpt lat="45.27337" lon="1.45472">
        <ele>119</ele>
        <time>2019-11-26T12:36:47Z</time>
      </trkpt>
      <trkpt lat="45.27331" lon="1.45448">
        <ele>118</ele>
        <time>2019-11-26T12:36:52Z</time>
      </trkpt>
      <trkpt lat="45.27331" lon="1.45414">
        <ele>118</ele>
        <time>2019-11-26T12:36:57Z</time>
      </trkpt>
      <trkpt lat="45.2734" lon="1.45358">
        <ele>115</ele>
        <time>2019-11-26T12:37:02Z</time>
      </trkpt>
      <trkpt lat="45.27327" lon="1.45326">
        <ele>113</ele>
        <time>2019-11-26T12:37:07Z</time>
      </trkpt>
      <trkpt lat="45.27299" lon="1.45276">
        <ele>113</ele>
        <time>2019-11-26T12:37:12Z</time>
      </trkpt>
      <trkpt lat="45.27283" lon="1.45171">
        <ele>114</ele>
        <time>2019-11-26T12:37:17Z</time>
      </trkpt>
      <trkpt lat="45.27263" lon="1.45094">
        <ele>116</ele>
        <time>2019-11-26T12:37:22Z</time>
      </trkpt>
      <trkpt lat="45.27221" lon="1.44937">
        <ele>117</ele>
        <time>2019-11-26T12:37:27Z</time>
      </trkpt>
      <trkpt lat="45.27194" lon="1.44826">
        <ele>118</ele>
        <time>2019-11-26T12:37:32Z</time>
      </trkpt>
      <trkpt lat="45.27174" lon="1.44781">
        <ele>120</ele>
        <time>2019-11-26T12:37:37Z</time>
      </trkpt>
      <trkpt lat="45.27111" lon="1.44676">
        <ele>119</ele>
        <time>2019-11-26T12:37:42Z</time>
      </trkpt>
      <trkpt lat="45.27083" lon="1.44616">
        <ele>120</ele>
        <time>2019-11-26T12:37:47Z</time>
      </trkpt>
      <trkpt lat="45.27032" lon="1.44549">
        <ele>120</ele>
        <time>2019-11-26T12:37:52Z</time>
      </trkpt>
      <trkpt lat="45.27008" lon="1.44504">
        <ele>120</ele>
        <time>2019-11-26T12:37:57Z</time>
      </trkpt>
      <trkpt lat="45.26987" lon="1.44478">
        <ele>121</ele>
        <time>2019-11-26T12:38:02Z</time>
      </trkpt>
      <trkpt lat="45.26987" lon="1.44461">
        <ele>121</ele>
        <time>2019-11-26T12:38:07Z</time>
      </trkpt>
      <trkpt lat="45.27002" lon="1.44414">
        <ele>122</ele>
        <time>2019-11-26T12:38:12Z</time>
      </trkpt>
      <trkpt lat="45.26994" lon="1.44371">
        <ele>124</ele>
        <time>2019-11-26T12:38:17Z</time>
      </trkpt>
      <trkpt lat="45.26937" lon="1.44274">
        <ele>128</ele>
        <time>2019-11-26T12:38:22Z</time>
      </trkpt>
      <trkpt lat="45.26937" lon="1.44231">
        <ele>129</ele>
        <time>2019-11-26T12:38:27Z</time>
      </trkpt>
      <trkpt lat="45.26937" lon="1.44206">
        <ele>130</ele>
        <time>2019-11-26T12:38:32Z</time>
      </trkpt>
      <trkpt lat="45.26967" lon="1.44156">
        <ele>131</ele>
        <time>2019-11-26T12:38:37Z</time>
      </trkpt>
      <trkpt lat="45.27047" lon="1.44086">
        <ele>129</ele>
        <time>2019-11-26T12:38:42Z</time>
      </trkpt>
      <trkpt lat="45.27071" lon="1.44066">
        <ele>130</ele>
        <time>2019-11-26T12:38:47Z</time>
      </trkpt>
      <trkpt lat="45.27118" lon="1.4406">
        <ele>129</ele>
        <time>2019-11-26T12:38:52Z</time>
      </trkpt>
      <trkpt lat="45.2718" lon="1.44019">
        <ele>130</ele>
        <time>2019-11-26T12:38:57Z</time>
      </trkpt>
      <trkpt lat="45.27215" lon="1.4401">
        <ele>131</ele>
        <time>2019-11-26T12:39:02Z</time>
      </trkpt>
      <trkpt lat="45.27221" lon="1.4404">
        <ele>130</ele>
        <time>2019-11-26T12:39:07Z</time>
      </trkpt>
      <trkpt lat="45.27222" lon="1.44073">
        <ele>129</ele>
        <time>2019-11-26T12:39:12Z</time>
      </trkpt>
      <trkpt lat="45.27228" lon="1.44109">
        <ele>128</ele>
        <time>2019-11-26T12:39:17Z</time>
      </trkpt>
      <trkpt lat="45.27233" lon="1.44146">
        <ele>127</ele>
        <time>2019-11-26T12:39:22Z</time>
      </trkpt>
      <trkpt lat="45.27216" lon="1.44174">
        <ele>126</ele>
        <time>2019-11-26T12:39:27Z</time>
      </trkpt>
    </trkseg>
  </trk>
</gpx>